<?xml version="1.0" encoding="UTF-8" standalone="no" ?>
<gpx xmlns="http://www.topografix.com/GPX/1/1" creator="MapSource 6.16.3" version="1.1" xmlns:xsi="http://www.w3.org/2001/XMLSchema-instance" xsi:schemaLocation="http://www.topografix.com/GPX/1/1 http://www.topografix.com/GPX/1/1/gpx.xsd">

  <metadata>
    <link href="http://www.garmin.com">
      <text>Garmin International</text>
    </link>
    <time>2016-08-31T06:36:26Z</time>
    <bounds maxlat="46.18169529363513" maxlon="8.328582281246781" minlat="46.066313032060862" minlon="8.262118734419346"/>
  </metadata>

  <wpt lat="46.122450828552246" lon="8.274003267288208">
    <name>001</name>
    <sym>Waypoint</sym>
    <extensions>
      <gpxx:WaypointExtension xmlns:gpxx="http://www.garmin.com/xmlschemas/GpxExtensions/v3">
        <gpxx:DisplayMode>SymbolAndName</gpxx:DisplayMode>
      </gpxx:WaypointExtension>
    </extensions>
  </wpt>

  <trk>
    <name>Villadossola_Toce</name>
    <trkseg>
      <trkpt lat="46.066313032060862" lon="8.262301124632359">
        <time>2003-04-26T07:06:52Z</time>
      </trkpt>
      <trkpt lat="46.066315714269876" lon="8.262429870665073">
        <time>2003-04-26T07:11:12Z</time>
      </trkpt>
      <trkpt lat="46.066358629614115" lon="8.262464739382267">
        <time>2003-04-26T07:11:14Z</time>
      </trkpt>
      <trkpt lat="46.066962126642466" lon="8.262947537004948">
        <time>2003-04-26T07:11:36Z</time>
      </trkpt>
      <trkpt lat="46.067624632269144" lon="8.263132609426975">
        <time>2003-04-26T07:11:54Z</time>
      </trkpt>
      <trkpt lat="46.068531218916178" lon="8.263011910021305">
        <time>2003-04-26T07:12:14Z</time>
      </trkpt>
      <trkpt lat="46.069027427583933" lon="8.262934125959873">
        <time>2003-04-26T07:12:24Z</time>
      </trkpt>
      <trkpt lat="46.069110576063395" lon="8.262904621660709">
        <time>2003-04-26T07:12:26Z</time>
      </trkpt>
      <trkpt lat="46.069158855825663" lon="8.262896575033665">
        <time>2003-04-26T07:12:27Z</time>
      </trkpt>
      <trkpt lat="46.069247368723154" lon="8.262872435152531">
        <time>2003-04-26T07:12:29Z</time>
      </trkpt>
      <trkpt lat="46.069982293993235" lon="8.262783922255039">
        <time>2003-04-26T07:12:45Z</time>
      </trkpt>
      <trkpt lat="46.070693079382181" lon="8.262743689119816">
        <time>2003-04-26T07:12:58Z</time>
      </trkpt>
      <trkpt lat="46.071516517549753" lon="8.262982405722141">
        <time>2003-04-26T07:13:11Z</time>
      </trkpt>
      <trkpt lat="46.071642581373453" lon="8.263081647455692">
        <time>2003-04-26T07:13:13Z</time>
      </trkpt>
      <trkpt lat="46.071698740124702" lon="8.263142835348845">
        <time>2003-04-26T07:13:14Z</time>
      </trkpt>
      <trkpt lat="46.072162762284279" lon="8.263698052614927">
        <time>2003-04-26T07:13:24Z</time>
      </trkpt>
      <trkpt lat="46.072661653161049" lon="8.264298867434263">
        <time>2003-04-26T07:13:36Z</time>
      </trkpt>
      <trkpt lat="46.072854772210121" lon="8.264542948454619">
        <time>2003-04-26T07:13:57Z</time>
      </trkpt>
      <trkpt lat="46.073257103562355" lon="8.264950644224882">
        <time>2003-04-26T07:14:06Z</time>
      </trkpt>
      <trkpt lat="46.07363797724247" lon="8.26538247987628">
        <time>2003-04-26T07:14:14Z</time>
      </trkpt>
      <trkpt lat="46.073809638619423" lon="8.265548776835203">
        <time>2003-04-26T07:14:18Z</time>
      </trkpt>
      <trkpt lat="46.074029579758644" lon="8.265524636954069">
        <time>2003-04-26T07:14:23Z</time>
      </trkpt>
      <trkpt lat="46.074571385979652" lon="8.265390526503325">
        <time>2003-04-26T07:14:38Z</time>
      </trkpt>
      <trkpt lat="46.074608936905861" lon="8.265411984175444">
        <time>2003-04-26T07:14:39Z</time>
      </trkpt>
      <trkpt lat="46.074651852250099" lon="8.265436124056578">
        <time>2003-04-26T07:14:40Z</time>
      </trkpt>
      <trkpt lat="46.075456514954567" lon="8.265878688544035">
        <time>2003-04-26T07:14:58Z</time>
      </trkpt>
      <trkpt lat="46.076145842671394" lon="8.266278337687254">
        <time>2003-04-26T07:15:13Z</time>
      </trkpt>
      <trkpt lat="46.076770797371864" lon="8.26661629602313">
        <time>2003-04-26T07:15:27Z</time>
      </trkpt>
      <trkpt lat="46.0776012763381" lon="8.267165394499898">
        <time>2003-04-26T07:15:45Z</time>
      </trkpt>
      <trkpt lat="46.078277193009853" lon="8.267720611765981">
        <time>2003-04-26T07:16:00Z</time>
      </trkpt>
      <trkpt lat="46.0789879783988" lon="8.268509181216359">
        <time>2003-04-26T07:16:17Z</time>
      </trkpt>
      <trkpt lat="46.079677306115627" lon="8.269262881949544">
        <time>2003-04-26T07:16:33Z</time>
      </trkpt>
      <trkpt lat="46.080245934426785" lon="8.269890518859029">
        <time>2003-04-26T07:16:47Z</time>
      </trkpt>
      <trkpt lat="46.080924533307552" lon="8.270652266219258">
        <time>2003-04-26T07:17:04Z</time>
      </trkpt>
      <trkpt lat="46.081648729741573" lon="8.271443517878652">
        <time>2003-04-26T07:17:22Z</time>
      </trkpt>
      <trkpt lat="46.082158349454403" lon="8.271969230845571">
        <time>2003-04-26T07:17:38Z</time>
      </trkpt>
      <trkpt lat="46.082324646413326" lon="8.2718485314399">
        <time>2003-04-26T07:17:43Z</time>
      </trkpt>
      <trkpt lat="46.082399748265743" lon="8.271813662722707">
        <time>2003-04-26T07:17:45Z</time>
      </trkpt>
      <trkpt lat="46.082598231732845" lon="8.271923633292317">
        <time>2003-04-26T07:17:50Z</time>
      </trkpt>
      <trkpt lat="46.083510182797909" lon="8.2726049143821">
        <time>2003-04-26T07:18:12Z</time>
      </trkpt>
      <trkpt lat="46.083818636834621" lon="8.27286777086556">
        <time>2003-04-26T07:18:19Z</time>
      </trkpt>
      <trkpt lat="46.083899103105068" lon="8.272969694808126">
        <time>2003-04-26T07:18:21Z</time>
      </trkpt>
      <trkpt lat="46.084296992048621" lon="8.273710068315268">
        <time>2003-04-26T07:18:34Z</time>
      </trkpt>
      <trkpt lat="46.084393551573157" lon="8.273860272020102">
        <time>2003-04-26T07:18:37Z</time>
      </trkpt>
      <trkpt lat="46.084516933187842" lon="8.273962195962668">
        <time>2003-04-26T07:18:40Z</time>
      </trkpt>
      <trkpt lat="46.085090925917029" lon="8.274203594774008">
        <time>2003-04-26T07:18:53Z</time>
      </trkpt>
      <trkpt lat="46.08570515178144" lon="8.274557646363974">
        <time>2003-04-26T07:19:07Z</time>
      </trkpt>
      <trkpt lat="46.086373021826148" lon="8.274989482015371">
        <time>2003-04-26T07:19:22Z</time>
      </trkpt>
      <trkpt lat="46.086850455030799" lon="8.275469597429037">
        <time>2003-04-26T07:19:34Z</time>
      </trkpt>
      <trkpt lat="46.087260833010077" lon="8.276116009801626">
        <time>2003-04-26T07:19:47Z</time>
      </trkpt>
      <trkpt lat="46.088065495714545" lon="8.277100380510092">
        <time>2003-04-26T07:20:11Z</time>
      </trkpt>
      <trkpt lat="46.088894298300147" lon="8.277701195329428">
        <time>2003-04-26T07:20:33Z</time>
      </trkpt>
      <trkpt lat="46.089833071455359" lon="8.278685566037893">
        <time>2003-04-26T07:21:03Z</time>
      </trkpt>
      <trkpt lat="46.090369513258338" lon="8.279578741639853">
        <time>2003-04-26T07:21:21Z</time>
      </trkpt>
      <trkpt lat="46.091214409098029" lon="8.280203696340323">
        <time>2003-04-26T07:21:44Z</time>
      </trkpt>
      <trkpt lat="46.09156577847898" lon="8.280313666909933">
        <time>2003-04-26T07:21:52Z</time>
      </trkpt>
      <trkpt lat="46.091702403500676" lon="8.28033646568656">
        <time>2003-04-26T07:21:55Z</time>
      </trkpt>
      <trkpt lat="46.092555345967412" lon="8.280556406825781">
        <time>2003-04-26T07:22:14Z</time>
      </trkpt>
      <trkpt lat="46.093161525204778" lon="8.280720021575689">
        <time>2003-04-26T07:22:27Z</time>
      </trkpt>
      <trkpt lat="46.09334927983582" lon="8.280821945518255">
        <time>2003-04-26T07:22:31Z</time>
      </trkpt>
      <trkpt lat="46.093478025868535" lon="8.280953373759985">
        <time>2003-04-26T07:22:34Z</time>
      </trkpt>
      <trkpt lat="46.093904497101903" lon="8.281551506370306">
        <time>2003-04-26T07:22:46Z</time>
      </trkpt>
      <trkpt lat="46.094532134011388" lon="8.28244736418128">
        <time>2003-04-26T07:23:05Z</time>
      </trkpt>
      <trkpt lat="46.095637204125524" lon="8.283876981586218">
        <time>2003-04-26T07:23:39Z</time>
      </trkpt>
      <trkpt lat="46.096661807969213" lon="8.284751381725073">
        <time>2003-04-26T07:24:06Z</time>
      </trkpt>
      <trkpt lat="46.096809329465032" lon="8.284923043102026">
        <time>2003-04-26T07:24:10Z</time>
      </trkpt>
      <trkpt lat="46.09684151597321" lon="8.284976687282324">
        <time>2003-04-26T07:24:11Z</time>
      </trkpt>
      <trkpt lat="46.097117783501744" lon="8.285497035831213">
        <time>2003-04-26T07:24:21Z</time>
      </trkpt>
      <trkpt lat="46.097233118489385" lon="8.285872545093298">
        <time>2003-04-26T07:24:27Z</time>
      </trkpt>
      <trkpt lat="46.097372593358159" lon="8.286808636039496">
        <time>2003-04-26T07:24:41Z</time>
      </trkpt>
      <trkpt lat="46.097393715754151" lon="8.286871835589409">
        <time>2003-04-26T07:24:42Z</time>
      </trkpt>
      <trkpt lat="46.09755196608603" lon="8.287148103117943">
        <time>2003-04-26T07:24:47Z</time>
      </trkpt>
      <trkpt lat="46.098142052069306" lon="8.288065418601036">
        <time>2003-04-26T07:25:07Z</time>
      </trkpt>
      <trkpt lat="46.098536336794496" lon="8.289154395461083">
        <time>2003-04-26T07:25:27Z</time>
      </trkpt>
      <trkpt lat="46.099131787195802" lon="8.289913460612297">
        <time>2003-04-26T07:25:46Z</time>
      </trkpt>
      <trkpt lat="46.099955225363374" lon="8.290954157710075">
        <time>2003-04-26T07:26:11Z</time>
      </trkpt>
      <trkpt lat="46.100936913862824" lon="8.292281851172447">
        <time>2003-04-26T07:26:42Z</time>
      </trkpt>
      <trkpt lat="46.101478720083833" lon="8.293019458651543">
        <time>2003-04-26T07:27:00Z</time>
      </trkpt>
      <trkpt lat="46.101489448919892" lon="8.293293043971062">
        <time>2003-04-26T07:27:05Z</time>
      </trkpt>
      <trkpt lat="46.101518953219056" lon="8.293453976511955">
        <time>2003-04-26T07:27:09Z</time>
      </trkpt>
      <trkpt lat="46.101620877161622" lon="8.293571993708611">
        <time>2003-04-26T07:27:13Z</time>
      </trkpt>
      <trkpt lat="46.10216804780066" lon="8.29408697783947">
        <time>2003-04-26T07:27:29Z</time>
      </trkpt>
      <trkpt lat="46.103358948603272" lon="8.294867500662804">
        <time>2003-04-26T07:28:03Z</time>
      </trkpt>
      <trkpt lat="46.104493523016572" lon="8.295398578047752">
        <time>2003-04-26T07:28:37Z</time>
      </trkpt>
      <trkpt lat="46.105228196829557" lon="8.295634612441063">
        <time>2003-04-26T07:29:00Z</time>
      </trkpt>
      <trkpt lat="46.106209885329008" lon="8.295554146170616">
        <time>2003-04-26T07:29:24Z</time>
      </trkpt>
      <trkpt lat="46.106920670717955" lon="8.295318111777306">
        <time>2003-04-26T07:29:44Z</time>
      </trkpt>
      <trkpt lat="46.106950175017118" lon="8.295355662703514">
        <time>2003-04-26T07:29:47Z</time>
      </trkpt>
      <trkpt lat="46.106976997107267" lon="8.295390531420708">
        <time>2003-04-26T07:29:50Z</time>
      </trkpt>
      <trkpt lat="46.106982361525297" lon="8.295395895838738">
        <time>2003-04-26T07:29:51Z</time>
      </trkpt>
      <trkpt lat="46.107036005705595" lon="8.295487090945244">
        <time>2003-04-26T07:30:15Z</time>
      </trkpt>
      <trkpt lat="46.107156705111265" lon="8.295489773154259">
        <time>2003-04-26T07:30:19Z</time>
      </trkpt>
      <trkpt lat="46.107384692877531" lon="8.295476362109184">
        <time>2003-04-26T07:30:26Z</time>
      </trkpt>
      <trkpt lat="46.107419561594725" lon="8.295476362109184">
        <time>2003-04-26T07:30:27Z</time>
      </trkpt>
      <trkpt lat="46.108133029192686" lon="8.295226916670799">
        <time>2003-04-26T07:30:46Z</time>
      </trkpt>
      <trkpt lat="46.108935009688139" lon="8.294671699404717">
        <time>2003-04-26T07:31:10Z</time>
      </trkpt>
      <trkpt lat="46.108940374106169" lon="8.294403478503227">
        <time>2003-04-26T07:31:15Z</time>
      </trkpt>
      <trkpt lat="46.108935009688139" lon="8.293196484446526">
        <time>2003-04-26T07:31:38Z</time>
      </trkpt>
      <trkpt lat="46.109221670776606" lon="8.292267182841897">
        <time>2003-04-26T07:31:56Z</time>
      </trkpt>
      <trkpt lat="46.109806392341852" lon="8.290759781375527">
        <time>2003-04-26T07:32:27Z</time>
      </trkpt>
      <trkpt lat="46.11035356298089" lon="8.289488414302468">
        <time>2003-04-26T07:32:53Z</time>
      </trkpt>
      <trkpt lat="46.110938284546137" lon="8.288766900077462">
        <time>2003-04-26T07:33:14Z</time>
      </trkpt>
      <trkpt lat="46.111911926418543" lon="8.287624279037118">
        <time>2003-04-26T07:33:46Z</time>
      </trkpt>
      <trkpt lat="46.113325450569391" lon="8.286170521751046">
        <time>2003-04-26T07:34:30Z</time>
      </trkpt>
      <trkpt lat="46.114199850708246" lon="8.285033265128732">
        <time>2003-04-26T07:35:00Z</time>
      </trkpt>
      <trkpt lat="46.115205679088831" lon="8.283541956916452">
        <time>2003-04-26T07:35:38Z</time>
      </trkpt>
      <trkpt lat="46.116187367588282" lon="8.282265225425363">
        <time>2003-04-26T07:36:11Z</time>
      </trkpt>
      <trkpt lat="46.116957161575556" lon="8.281680503860116">
        <time>2003-04-26T07:36:33Z</time>
      </trkpt>
      <trkpt lat="46.117252204567194" lon="8.281656363978982">
        <time>2003-04-26T07:36:43Z</time>
      </trkpt>
      <trkpt lat="46.117284391075373" lon="8.281677821651101">
        <time>2003-04-26T07:36:45Z</time>
      </trkpt>
      <trkpt lat="46.117305848747492" lon="8.281685868278146">
        <time>2003-04-26T07:36:47Z</time>
      </trkpt>
      <trkpt lat="46.117388997226954" lon="8.281602719798684">
        <time>2003-04-26T07:36:56Z</time>
      </trkpt>
      <trkpt lat="46.117455884814262" lon="8.281403481960297">
        <time>2003-04-26T07:37:02Z</time>
      </trkpt>
      <trkpt lat="46.117799207568169" lon="8.280400335788727">
        <time>2003-04-26T07:37:24Z</time>
      </trkpt>
      <trkpt lat="46.118290051817894" lon="8.278876841068268">
        <time>2003-04-26T07:37:53Z</time>
      </trkpt>
      <trkpt lat="46.118992790579796" lon="8.277380168437958">
        <time>2003-04-26T07:38:24Z</time>
      </trkpt>
      <trkpt lat="46.11962579190731" lon="8.276892006397247">
        <time>2003-04-26T07:38:43Z</time>
      </trkpt>
      <trkpt lat="46.120830103754997" lon="8.27582448720932">
        <time>2003-04-26T07:39:18Z</time>
      </trkpt>
      <trkpt lat="46.121232435107231" lon="8.274955451488495">
        <time>2003-04-26T07:39:39Z</time>
      </trkpt>
      <trkpt lat="46.121463105082512" lon="8.273984491825104">
        <time>2003-04-26T07:40:01Z</time>
      </trkpt>
      <trkpt lat="46.121556982398033" lon="8.273971080780029">
        <time>2003-04-26T07:40:05Z</time>
      </trkpt>
      <trkpt lat="46.122318729758263" lon="8.273933529853821">
        <time>2003-04-26T07:40:31Z</time>
      </trkpt>
      <trkpt lat="46.122637912631035" lon="8.274019360542297">
        <time>2003-04-26T07:42:34Z</time>
      </trkpt>
      <trkpt lat="46.122696921229362" lon="8.274024724960327">
        <time>2003-04-26T07:42:36Z</time>
      </trkpt>
      <trkpt lat="46.122790798544884" lon="8.273984491825104">
        <time>2003-04-26T07:42:39Z</time>
      </trkpt>
      <trkpt lat="46.123421117663383" lon="8.273963034152985">
        <time>2003-04-26T07:42:58Z</time>
      </trkpt>
      <trkpt lat="46.123912129551172" lon="8.273921459913254">
        <time>2003-04-26T07:43:21Z</time>
      </trkpt>
      <trkpt lat="46.124341282993555" lon="8.273830264806747">
        <time>2003-04-26T07:43:45Z</time>
      </trkpt>
      <trkpt lat="46.124644372612238" lon="8.273572772741318">
        <time>2003-04-26T07:44:05Z</time>
      </trkpt>
      <trkpt lat="46.125057432800531" lon="8.273457437753677">
        <time>2003-04-26T07:44:28Z</time>
      </trkpt>
      <trkpt lat="46.125438306480646" lon="8.273183852434158">
        <time>2003-04-26T07:44:49Z</time>
      </trkpt>
      <trkpt lat="46.125569734722376" lon="8.273106068372726">
        <time>2003-04-26T07:45:16Z</time>
      </trkpt>
      <trkpt lat="46.125601921230555" lon="8.273111432790756">
        <time>2003-04-26T07:45:17Z</time>
      </trkpt>
      <trkpt lat="46.125634107738733" lon="8.273116797208786">
        <time>2003-04-26T07:45:18Z</time>
      </trkpt>
      <trkpt lat="46.125808451324701" lon="8.273301869630814">
        <time>2003-04-26T07:45:25Z</time>
      </trkpt>
      <trkpt lat="46.125942561775446" lon="8.27351376414299">
        <time>2003-04-26T07:45:58Z</time>
      </trkpt>
      <trkpt lat="46.125996205955744" lon="8.273806124925613">
        <time>2003-04-26T07:46:03Z</time>
      </trkpt>
      <trkpt lat="46.12608740106225" lon="8.273857086896896">
        <time>2003-04-26T07:46:04Z</time>
      </trkpt>
      <trkpt lat="46.126366350799799" lon="8.27401801943779">
        <time>2003-04-26T07:46:07Z</time>
      </trkpt>
      <trkpt lat="46.126441452652216" lon="8.274272829294205">
        <time>2003-04-26T07:46:11Z</time>
      </trkpt>
      <trkpt lat="46.12653105519712" lon="8.274472234770656">
        <time>2003-04-26T07:46:15Z</time>
      </trkpt>
      <trkpt lat="46.126544466242194" lon="8.274515150114894">
        <time>2003-04-26T07:46:16Z</time>
      </trkpt>
      <trkpt lat="46.126740267500281" lon="8.275051591917872">
        <time>2003-04-26T07:46:34Z</time>
      </trkpt>
      <trkpt lat="46.12728207372129" lon="8.275561211630702">
        <time>2003-04-26T07:46:55Z</time>
      </trkpt>
      <trkpt lat="46.12790702842176" lon="8.275966225191951">
        <time>2003-04-26T07:47:17Z</time>
      </trkpt>
      <trkpt lat="46.127995541319251" lon="8.276049373671413">
        <time>2003-04-26T07:47:20Z</time>
      </trkpt>
      <trkpt lat="46.127957990393043" lon="8.276175437495112">
        <time>2003-04-26T07:47:23Z</time>
      </trkpt>
      <trkpt lat="46.127858748659492" lon="8.276604590937495">
        <time>2003-04-26T07:47:30Z</time>
      </trkpt>
      <trkpt lat="46.127842655405402" lon="8.276647506281734">
        <time>2003-04-26T07:47:31Z</time>
      </trkpt>
      <trkpt lat="46.127791693434119" lon="8.276789663359523">
        <time>2003-04-26T07:47:34Z</time>
      </trkpt>
      <trkpt lat="46.127834608778358" lon="8.276832578703761">
        <time>2003-04-26T07:47:37Z</time>
      </trkpt>
      <trkpt lat="46.128167202696204" lon="8.277063248679042">
        <time>2003-04-26T07:47:53Z</time>
      </trkpt>
      <trkpt lat="46.128330817446113" lon="8.277157125994563">
        <time>2003-04-26T07:48:23Z</time>
      </trkpt>
      <trkpt lat="46.128341546282172" lon="8.277165172621608">
        <time>2003-04-26T07:48:24Z</time>
      </trkpt>
      <trkpt lat="46.128435675054789" lon="8.277274388819933">
        <time>2003-04-26T07:48:27Z</time>
      </trkpt>
      <trkpt lat="46.128454450517893" lon="8.277311939746141">
        <time>2003-04-26T07:48:28Z</time>
      </trkpt>
      <trkpt lat="46.128567103296518" lon="8.277440685778856">
        <time>2003-04-26T07:48:33Z</time>
      </trkpt>
      <trkpt lat="46.128736082464457" lon="8.277545291930437">
        <time>2003-04-26T07:48:39Z</time>
      </trkpt>
      <trkpt lat="46.128789726644754" lon="8.277558702975512">
        <time>2003-04-26T07:48:40Z</time>
      </trkpt>
      <trkpt lat="46.12889165058732" lon="8.27759088948369">
        <time>2003-04-26T07:48:42Z</time>
      </trkpt>
      <trkpt lat="46.128950659185648" lon="8.277738410979509">
        <time>2003-04-26T07:48:46Z</time>
      </trkpt>
      <trkpt lat="46.128956023603678" lon="8.277926165610552">
        <time>2003-04-26T07:48:53Z</time>
      </trkpt>
      <trkpt lat="46.128913108259439" lon="8.278213161975145">
        <time>2003-04-26T07:49:06Z</time>
      </trkpt>
      <trkpt lat="46.12902307882905" lon="8.278328496962786">
        <time>2003-04-26T07:49:32Z</time>
      </trkpt>
      <trkpt lat="46.129409316927195" lon="8.278661090880632">
        <time>2003-04-26T07:49:46Z</time>
      </trkpt>
      <trkpt lat="46.129827741533518" lon="8.279138524085283">
        <time>2003-04-26T07:49:59Z</time>
      </trkpt>
      <trkpt lat="46.130315903574228" lon="8.280026335269213">
        <time>2003-04-26T07:50:22Z</time>
      </trkpt>
      <trkpt lat="46.130830887705088" lon="8.281120676547289">
        <time>2003-04-26T07:50:45Z</time>
      </trkpt>
      <trkpt lat="46.131016127765179" lon="8.281604396179318">
        <time>2003-04-26T07:50:53Z</time>
      </trkpt>
      <trkpt lat="46.131045632064342" lon="8.281695591285825">
        <time>2003-04-26T07:50:54Z</time>
      </trkpt>
      <trkpt lat="46.131388954818249" lon="8.282379554584622">
        <time>2003-04-26T07:51:03Z</time>
      </trkpt>
      <trkpt lat="46.131426505744457" lon="8.282435880973935">
        <time>2003-04-26T07:51:04Z</time>
      </trkpt>
      <trkpt lat="46.131560616195202" lon="8.282650457695127">
        <time>2003-04-26T07:51:10Z</time>
      </trkpt>
      <trkpt lat="46.131568662822247" lon="8.282663868740201">
        <time>2003-04-26T07:51:11Z</time>
      </trkpt>
      <trkpt lat="46.131576709449291" lon="8.282677279785276">
        <time>2003-04-26T07:51:12Z</time>
      </trkpt>
      <trkpt lat="46.131590120494366" lon="8.282717512920499">
        <time>2003-04-26T07:51:14Z</time>
      </trkpt>
      <trkpt lat="46.131643764674664" lon="8.282795296981931">
        <time>2003-04-26T07:51:18Z</time>
      </trkpt>
      <trkpt lat="46.131767146289349" lon="8.282824801281095">
        <time>2003-04-26T07:51:23Z</time>
      </trkpt>
      <trkpt lat="46.132314316928387" lon="8.283146666362882">
        <time>2003-04-26T07:51:39Z</time>
      </trkpt>
      <trkpt lat="46.132451109588146" lon="8.283264683559537">
        <time>2003-04-26T07:51:43Z</time>
      </trkpt>
      <trkpt lat="46.132496707141399" lon="8.283318327739835">
        <time>2003-04-26T07:51:44Z</time>
      </trkpt>
      <trkpt lat="46.133143119513988" lon="8.283999608829618">
        <time>2003-04-26T07:51:58Z</time>
      </trkpt>
      <trkpt lat="46.133410334587097" lon="8.284236397594214">
        <time>2003-04-26T07:52:04Z</time>
      </trkpt>
      <trkpt lat="46.133482754230499" lon="8.284338321536779">
        <time>2003-04-26T07:52:06Z</time>
      </trkpt>
      <trkpt lat="46.133871674537659" lon="8.285094704478979">
        <time>2003-04-26T07:52:19Z</time>
      </trkpt>
      <trkpt lat="46.133877038955688" lon="8.285164441913366">
        <time>2003-04-26T07:52:20Z</time>
      </trkpt>
      <trkpt lat="46.134035289287567" lon="8.285826947540045">
        <time>2003-04-26T07:52:30Z</time>
      </trkpt>
      <trkpt lat="46.134094297885895" lon="8.285926189273596">
        <time>2003-04-26T07:52:32Z</time>
      </trkpt>
      <trkpt lat="46.134872138500214" lon="8.287087585777044">
        <time>2003-04-26T07:52:59Z</time>
      </trkpt>
      <trkpt lat="46.135639250278473" lon="8.287750091403723">
        <time>2003-04-26T07:53:20Z</time>
      </trkpt>
      <trkpt lat="46.137288808822632" lon="8.28895440325141">
        <time>2003-04-26T07:54:03Z</time>
      </trkpt>
      <trkpt lat="46.138249039649963" lon="8.289649095386267">
        <time>2003-04-26T07:54:28Z</time>
      </trkpt>
      <trkpt lat="46.140030026435852" lon="8.290882911533117">
        <time>2003-04-26T07:55:13Z</time>
      </trkpt>
      <trkpt lat="46.140992939472198" lon="8.291561510413885">
        <time>2003-04-26T07:55:37Z</time>
      </trkpt>
      <trkpt lat="46.142771244049072" lon="8.2928248308599">
        <time>2003-04-26T07:56:23Z</time>
      </trkpt>
      <trkpt lat="46.14382803440094" lon="8.293825294822455">
        <time>2003-04-26T07:56:53Z</time>
      </trkpt>
      <trkpt lat="46.144551811739802" lon="8.294978309422731">
        <time>2003-04-26T07:57:21Z</time>
      </trkpt>
      <trkpt lat="46.144916592165828" lon="8.295732010155916">
        <time>2003-04-26T07:57:37Z</time>
      </trkpt>
      <trkpt lat="46.144905863329768" lon="8.295815158635378">
        <time>2003-04-26T07:57:39Z</time>
      </trkpt>
      <trkpt lat="46.144892452284694" lon="8.296075332909823">
        <time>2003-04-26T07:57:50Z</time>
      </trkpt>
      <trkpt lat="46.144930003210902" lon="8.296120930463076">
        <time>2003-04-26T07:57:52Z</time>
      </trkpt>
      <trkpt lat="46.145077524706721" lon="8.296142388135195">
        <time>2003-04-26T07:57:57Z</time>
      </trkpt>
      <trkpt lat="46.14572393707931" lon="8.296214807778597">
        <time>2003-04-26T07:58:14Z</time>
      </trkpt>
      <trkpt lat="46.147443233057857" lon="8.296461571007967">
        <time>2003-04-26T07:58:59Z</time>
      </trkpt>
      <trkpt lat="46.14810842089355" lon="8.296681512147188">
        <time>2003-04-26T07:59:18Z</time>
      </trkpt>
      <trkpt lat="46.148132560774684" lon="8.296713698655367">
        <time>2003-04-26T07:59:19Z</time>
      </trkpt>
      <trkpt lat="46.148497341200709" lon="8.29738425090909">
        <time>2003-04-26T07:59:33Z</time>
      </trkpt>
      <trkpt lat="46.149234948679805" lon="8.298840690404177">
        <time>2003-04-26T08:00:05Z</time>
      </trkpt>
      <trkpt lat="46.149961827322841" lon="8.300254214555025">
        <time>2003-04-26T08:00:36Z</time>
      </trkpt>
      <trkpt lat="46.150637743994594" lon="8.301045466214418">
        <time>2003-04-26T08:00:57Z</time>
      </trkpt>
      <trkpt lat="46.151511641219258" lon="8.3020462654531">
        <time>2003-04-26T08:01:27Z</time>
      </trkpt>
      <trkpt lat="46.152085633948445" lon="8.302689995616674">
        <time>2003-04-26T08:01:43Z</time>
      </trkpt>
      <trkpt lat="46.152673037722707" lon="8.303331043571234">
        <time>2003-04-26T08:01:56Z</time>
      </trkpt>
      <trkpt lat="46.153145106509328" lon="8.303848709911108">
        <time>2003-04-26T08:02:08Z</time>
      </trkpt>
      <trkpt lat="46.153225572779775" lon="8.303929176181555">
        <time>2003-04-26T08:02:30Z</time>
      </trkpt>
      <trkpt lat="46.153263123705983" lon="8.303961362689734">
        <time>2003-04-26T08:02:32Z</time>
      </trkpt>
      <trkpt lat="46.153284581378102" lon="8.303985502570868">
        <time>2003-04-26T08:02:33Z</time>
      </trkpt>
      <trkpt lat="46.153324814513326" lon="8.30404182896018">
        <time>2003-04-26T08:02:35Z</time>
      </trkpt>
      <trkpt lat="46.153866620734334" lon="8.304645325988531">
        <time>2003-04-26T08:02:53Z</time>
      </trkpt>
      <trkpt lat="46.154207261279225" lon="8.30503961071372">
        <time>2003-04-26T08:03:05Z</time>
      </trkpt>
      <trkpt lat="46.1542206723243" lon="8.30506106838584">
        <time>2003-04-26T08:03:06Z</time>
      </trkpt>
      <trkpt lat="46.154295774176717" lon="8.305160310119391">
        <time>2003-04-26T08:05:45Z</time>
      </trkpt>
      <trkpt lat="46.154378922656178" lon="8.305251505225897">
        <time>2003-04-26T08:05:49Z</time>
      </trkpt>
      <trkpt lat="46.155001195147634" lon="8.305938150733709">
        <time>2003-04-26T08:06:11Z</time>
      </trkpt>
      <trkpt lat="46.155616091564298" lon="8.306245096027851">
        <time>2003-04-26T08:06:30Z</time>
      </trkpt>
      <trkpt lat="46.156833814457059" lon="8.306625969707966">
        <time>2003-04-26T08:07:02Z</time>
      </trkpt>
      <trkpt lat="46.158209787681699" lon="8.306867368519306">
        <time>2003-04-26T08:07:36Z</time>
      </trkpt>
      <trkpt lat="46.158579932525754" lon="8.306727893650532">
        <time>2003-04-26T08:07:52Z</time>
      </trkpt>
      <trkpt lat="46.158590661361814" lon="8.306725211441517">
        <time>2003-04-26T08:07:53Z</time>
      </trkpt>
      <trkpt lat="46.158767687156796" lon="8.306591100990772">
        <time>2003-04-26T08:10:37Z</time>
      </trkpt>
      <trkpt lat="46.159151243045926" lon="8.306459672749043">
        <time>2003-04-26T08:10:53Z</time>
      </trkpt>
      <trkpt lat="46.159242438152432" lon="8.306443579494953">
        <time>2003-04-26T08:10:56Z</time>
      </trkpt>
      <trkpt lat="46.159274624660611" lon="8.306462354958057">
        <time>2003-04-26T08:10:57Z</time>
      </trkpt>
      <trkpt lat="46.15930144675076" lon="8.306478448212147">
        <time>2003-04-26T08:10:58Z</time>
      </trkpt>
      <trkpt lat="46.159411417320371" lon="8.306558914482594">
        <time>2003-04-26T08:11:02Z</time>
      </trkpt>
      <trkpt lat="46.159923719242215" lon="8.306585736572743">
        <time>2003-04-26T08:11:19Z</time>
      </trkpt>
      <trkpt lat="46.160615729168057" lon="8.306486494839191">
        <time>2003-04-26T08:11:43Z</time>
      </trkpt>
      <trkpt lat="46.160653280094266" lon="8.3065240457654">
        <time>2003-04-26T08:12:31Z</time>
      </trkpt>
      <trkpt lat="46.160683454945683" lon="8.306587832048535">
        <time>2003-04-26T08:12:34Z</time>
      </trkpt>
      <trkpt lat="46.160903396084905" lon="8.306992845609784">
        <time>2003-04-26T08:12:50Z</time>
      </trkpt>
      <trkpt lat="46.161185028031468" lon="8.307435410097241">
        <time>2003-04-26T08:13:08Z</time>
      </trkpt>
      <trkpt lat="46.16114747710526" lon="8.307666080072522">
        <time>2003-04-26T08:13:14Z</time>
      </trkpt>
      <trkpt lat="46.160887302830815" lon="8.308443920686841">
        <time>2003-04-26T08:13:33Z</time>
      </trkpt>
      <trkpt lat="46.160680772736669" lon="8.309039371088147">
        <time>2003-04-26T08:13:55Z</time>
      </trkpt>
      <trkpt lat="46.160688819363713" lon="8.309063510969281">
        <time>2003-04-26T08:13:56Z</time>
      </trkpt>
      <trkpt lat="46.160892667248845" lon="8.30972065217793">
        <time>2003-04-26T08:14:18Z</time>
      </trkpt>
      <trkpt lat="46.16102677769959" lon="8.30997814424336">
        <time>2003-04-26T08:14:30Z</time>
      </trkpt>
      <trkpt lat="46.16103214211762" lon="8.310002284124494">
        <time>2003-04-26T08:14:31Z</time>
      </trkpt>
      <trkpt lat="46.161061646416783" lon="8.310101525858045">
        <time>2003-04-26T08:14:35Z</time>
      </trkpt>
      <trkpt lat="46.161067010834813" lon="8.310125665739179">
        <time>2003-04-26T08:14:36Z</time>
      </trkpt>
      <trkpt lat="46.161337913945317" lon="8.310297327116132">
        <time>2003-04-26T08:16:02Z</time>
      </trkpt>
      <trkpt lat="46.1613888759166" lon="8.310300009325147">
        <time>2003-04-26T08:16:04Z</time>
      </trkpt>
      <trkpt lat="46.161433132365346" lon="8.310290956869721">
        <time>2003-04-26T08:16:06Z</time>
      </trkpt>
      <trkpt lat="46.16145727224648" lon="8.310288274660707">
        <time>2003-04-26T08:16:07Z</time>
      </trkpt>
      <trkpt lat="46.161484094336629" lon="8.310288274660707">
        <time>2003-04-26T08:16:08Z</time>
      </trkpt>
      <trkpt lat="46.161537738516927" lon="8.310285592451692">
        <time>2003-04-26T08:16:10Z</time>
      </trkpt>
      <trkpt lat="46.161586018279195" lon="8.310264134779573">
        <time>2003-04-26T08:16:12Z</time>
      </trkpt>
      <trkpt lat="46.161628933623433" lon="8.310274863615632">
        <time>2003-04-26T08:16:14Z</time>
      </trkpt>
      <trkpt lat="46.161655755713582" lon="8.310272181406617">
        <time>2003-04-26T08:16:15Z</time>
      </trkpt>
      <trkpt lat="46.161746950820088" lon="8.310229266062379">
        <time>2003-04-26T08:16:19Z</time>
      </trkpt>
      <trkpt lat="46.161773772910237" lon="8.310221219435334">
        <time>2003-04-26T08:16:20Z</time>
      </trkpt>
      <trkpt lat="46.16182473488152" lon="8.310215855017304">
        <time>2003-04-26T08:16:22Z</time>
      </trkpt>
      <trkpt lat="46.162184150889516" lon="8.310162210837007">
        <time>2003-04-26T08:16:38Z</time>
      </trkpt>
      <trkpt lat="46.162259252741933" lon="8.310186350718141">
        <time>2003-04-26T08:16:42Z</time>
      </trkpt>
      <trkpt lat="46.162634762004018" lon="8.310304367914796">
        <time>2003-04-26T08:17:02Z</time>
      </trkpt>
      <trkpt lat="46.163077326491475" lon="8.310392880812287">
        <time>2003-04-26T08:17:23Z</time>
      </trkpt>
      <trkpt lat="46.163571691140532" lon="8.310514250770211">
        <time>2003-04-26T08:17:46Z</time>
      </trkpt>
      <trkpt lat="46.163866734132171" lon="8.310433784499764">
        <time>2003-04-26T08:18:48Z</time>
      </trkpt>
      <trkpt lat="46.16388282738626" lon="8.310436466708779">
        <time>2003-04-26T08:18:49Z</time>
      </trkpt>
      <trkpt lat="46.163898920640349" lon="8.310474017634988">
        <time>2003-04-26T08:18:51Z</time>
      </trkpt>
      <trkpt lat="46.163915013894439" lon="8.310476699844003">
        <time>2003-04-26T08:18:52Z</time>
      </trkpt>
      <trkpt lat="46.163952564820647" lon="8.310476699844003">
        <time>2003-04-26T08:18:54Z</time>
      </trkpt>
      <trkpt lat="46.163971340283751" lon="8.310479382053018">
        <time>2003-04-26T08:18:55Z</time>
      </trkpt>
      <trkpt lat="46.164097404107451" lon="8.310492793098092">
        <time>2003-04-26T08:19:02Z</time>
      </trkpt>
      <trkpt lat="46.164121543988585" lon="8.310530344024301">
        <time>2003-04-26T08:19:05Z</time>
      </trkpt>
      <trkpt lat="46.16414568386972" lon="8.31055180169642">
        <time>2003-04-26T08:19:07Z</time>
      </trkpt>
      <trkpt lat="46.164159094914794" lon="8.310559848323464">
        <time>2003-04-26T08:19:08Z</time>
      </trkpt>
      <trkpt lat="46.164175188168883" lon="8.310565212741494">
        <time>2003-04-26T08:19:10Z</time>
      </trkpt>
      <trkpt lat="46.164478277787566" lon="8.310495475307107">
        <time>2003-04-26T08:19:29Z</time>
      </trkpt>
      <trkpt lat="46.164499735459685" lon="8.310492793098092">
        <time>2003-04-26T08:19:31Z</time>
      </trkpt>
      <trkpt lat="46.164517588913441" lon="8.310490362346172">
        <time>2003-04-26T08:19:32Z</time>
      </trkpt>
      <trkpt lat="46.164568550884724" lon="8.310576193034649">
        <time>2003-04-26T08:19:36Z</time>
      </trkpt>
      <trkpt lat="46.164651699364185" lon="8.310460858047009">
        <time>2003-04-26T08:19:46Z</time>
      </trkpt>
      <trkpt lat="46.164941377937794" lon="8.310393802821636">
        <time>2003-04-26T08:20:15Z</time>
      </trkpt>
      <trkpt lat="46.164954788982868" lon="8.310399167239666">
        <time>2003-04-26T08:20:16Z</time>
      </trkpt>
      <trkpt lat="46.165048666298389" lon="8.310409896075726">
        <time>2003-04-26T08:20:21Z</time>
      </trkpt>
      <trkpt lat="46.165107674896717" lon="8.310393802821636">
        <time>2003-04-26T08:20:24Z</time>
      </trkpt>
      <trkpt lat="46.165228374302387" lon="8.310372345149517">
        <time>2003-04-26T08:20:29Z</time>
      </trkpt>
      <trkpt lat="46.165260560810566" lon="8.310383073985577">
        <time>2003-04-26T08:20:30Z</time>
      </trkpt>
      <trkpt lat="46.165319569408894" lon="8.310401849448681">
        <time>2003-04-26T08:20:33Z</time>
      </trkpt>
      <trkpt lat="46.165826506912708" lon="8.310364298522472">
        <time>2003-04-26T08:21:34Z</time>
      </trkpt>
      <trkpt lat="46.165864057838917" lon="8.310364298522472">
        <time>2003-04-26T08:21:35Z</time>
      </trkpt>
      <trkpt lat="46.165928430855274" lon="8.310350887477398">
        <time>2003-04-26T08:21:37Z</time>
      </trkpt>
      <trkpt lat="46.16592038422823" lon="8.31043403595686">
        <time>2003-04-26T08:21:40Z</time>
      </trkpt>
      <trkpt lat="46.165984757244587" lon="8.310414841398597">
        <time>2003-04-26T08:21:43Z</time>
      </trkpt>
      <trkpt lat="46.166000850498676" lon="8.310406794771552">
        <time>2003-04-26T08:21:44Z</time>
      </trkpt>
      <trkpt lat="46.16653461009264" lon="8.310551634058356">
        <time>2003-04-26T08:23:23Z</time>
      </trkpt>
      <trkpt lat="46.166564114391804" lon="8.310556998476386">
        <time>2003-04-26T08:23:25Z</time>
      </trkpt>
      <trkpt lat="46.166657991707325" lon="8.31058650277555">
        <time>2003-04-26T08:23:30Z</time>
      </trkpt>
      <trkpt lat="46.167172975838184" lon="8.310723295435309">
        <time>2003-04-26T08:23:49Z</time>
      </trkpt>
      <trkpt lat="46.167210526764393" lon="8.310699155554175">
        <time>2003-04-26T08:23:50Z</time>
      </trkpt>
      <trkpt lat="46.167261488735676" lon="8.310661604627967">
        <time>2003-04-26T08:23:52Z</time>
      </trkpt>
      <trkpt lat="46.167282946407795" lon="8.310640146955848">
        <time>2003-04-26T08:23:53Z</time>
      </trkpt>
      <trkpt lat="46.167618222534657" lon="8.310616007074714">
        <time>2003-04-26T08:24:09Z</time>
      </trkpt>
      <trkpt lat="46.167744286358356" lon="8.310691108927131">
        <time>2003-04-26T08:24:55Z</time>
      </trkpt>
      <trkpt lat="46.167816706001759" lon="8.310747435316443">
        <time>2003-04-26T08:24:58Z</time>
      </trkpt>
      <trkpt lat="46.167945452034473" lon="8.310811808332801">
        <time>2003-04-26T08:25:01Z</time>
      </trkpt>
      <trkpt lat="46.167993731796741" lon="8.31082790158689">
        <time>2003-04-26T08:25:02Z</time>
      </trkpt>
      <trkpt lat="46.168033126741648" lon="8.310838211327791">
        <time>2003-04-26T08:25:03Z</time>
      </trkpt>
      <trkpt lat="46.168067995458841" lon="8.310840893536806">
        <time>2003-04-26T08:25:04Z</time>
      </trkpt>
      <trkpt lat="46.168414000421762" lon="8.310741651803255">
        <time>2003-04-26T08:25:19Z</time>
      </trkpt>
      <trkpt lat="46.168475691229105" lon="8.310693372040987">
        <time>2003-04-26T08:25:22Z</time>
      </trkpt>
      <trkpt lat="46.168507877737284" lon="8.310685325413942">
        <time>2003-04-26T08:25:23Z</time>
      </trkpt>
      <trkpt lat="46.168628577142954" lon="8.310642410069704">
        <time>2003-04-26T08:25:28Z</time>
      </trkpt>
      <trkpt lat="46.168709043413401" lon="8.310776520520449">
        <time>2003-04-26T08:25:33Z</time>
      </trkpt>
      <trkpt lat="46.168727818876505" lon="8.310752380639315">
        <time>2003-04-26T08:25:34Z</time>
      </trkpt>
      <trkpt lat="46.168781463056803" lon="8.310768473893404">
        <time>2003-04-26T08:25:36Z</time>
      </trkpt>
      <trkpt lat="46.168808285146952" lon="8.310792613774538">
        <time>2003-04-26T08:25:37Z</time>
      </trkpt>
      <trkpt lat="46.168912891298532" lon="8.310824800282717">
        <time>2003-04-26T08:25:41Z</time>
      </trkpt>
      <trkpt lat="46.169162336736917" lon="8.310953546315432">
        <time>2003-04-26T08:25:50Z</time>
      </trkpt>
      <trkpt lat="46.1693393625319" lon="8.311052788048983">
        <time>2003-04-26T08:25:56Z</time>
      </trkpt>
      <trkpt lat="46.16935545578599" lon="8.311093021184206">
        <time>2003-04-26T08:25:57Z</time>
      </trkpt>
      <trkpt lat="46.169370962306857" lon="8.311135433614254">
        <time>2003-04-26T08:25:58Z</time>
      </trkpt>
      <trkpt lat="46.169464839622378" lon="8.311269544064999">
        <time>2003-04-26T08:26:03Z</time>
      </trkpt>
      <trkpt lat="46.169483615085483" lon="8.311288319528103">
        <time>2003-04-26T08:26:04Z</time>
      </trkpt>
      <trkpt lat="46.169521166011691" lon="8.311341963708401">
        <time>2003-04-26T08:26:06Z</time>
      </trkpt>
      <trkpt lat="46.169577492401004" lon="8.311441205441952">
        <time>2003-04-26T08:26:09Z</time>
      </trkpt>
      <trkpt lat="46.169615043327212" lon="8.311486802995205">
        <time>2003-04-26T08:26:11Z</time>
      </trkpt>
      <trkpt lat="46.169979823753238" lon="8.312138579785824">
        <time>2003-04-26T08:26:32Z</time>
      </trkpt>
      <trkpt lat="46.17043043486774" lon="8.312988840043545">
        <time>2003-04-26T08:27:00Z</time>
      </trkpt>
      <trkpt lat="46.170674515888095" lon="8.313230238854885">
        <time>2003-04-26T08:27:14Z</time>
      </trkpt>
      <trkpt lat="46.170736206695437" lon="8.313200734555721">
        <time>2003-04-26T08:27:17Z</time>
      </trkpt>
      <trkpt lat="46.17104466073215" lon="8.31322755664587">
        <time>2003-04-26T08:27:36Z</time>
      </trkpt>
      <trkpt lat="46.171063436195254" lon="8.3132329210639">
        <time>2003-04-26T08:27:37Z</time>
      </trkpt>
      <trkpt lat="46.171106351539493" lon="8.313286565244198">
        <time>2003-04-26T08:27:39Z</time>
      </trkpt>
      <trkpt lat="46.171127809211612" lon="8.31334825605154">
        <time>2003-04-26T08:27:40Z</time>
      </trkpt>
      <trkpt lat="46.171134598553181" lon="8.313418999314308">
        <time>2003-04-26T08:27:41Z</time>
      </trkpt>
      <trkpt lat="46.17115069180727" lon="8.313461914658546">
        <time>2003-04-26T08:27:42Z</time>
      </trkpt>
      <trkpt lat="46.171177513897419" lon="8.313475325703621">
        <time>2003-04-26T08:27:43Z</time>
      </trkpt>
      <trkpt lat="46.171284802258015" lon="8.313523605465889">
        <time>2003-04-26T08:27:48Z</time>
      </trkpt>
      <trkpt lat="46.171381361782551" lon="8.313550427556038">
        <time>2003-04-26T08:27:52Z</time>
      </trkpt>
      <trkpt lat="46.171585209667683" lon="8.31362284719944">
        <time>2003-04-26T08:28:00Z</time>
      </trkpt>
      <trkpt lat="46.171633489429951" lon="8.313700631260872">
        <time>2003-04-26T08:28:02Z</time>
      </trkpt>
      <trkpt lat="46.171665675938129" lon="8.31375427544117">
        <time>2003-04-26T08:28:03Z</time>
      </trkpt>
      <trkpt lat="46.171695180237293" lon="8.31399567425251">
        <time>2003-04-26T08:28:06Z</time>
      </trkpt>
      <trkpt lat="46.171700544655323" lon="8.314078822731972">
        <time>2003-04-26T08:28:07Z</time>
      </trkpt>
      <trkpt lat="46.17176491767168" lon="8.314220979809761">
        <time>2003-04-26T08:28:09Z</time>
      </trkpt>
      <trkpt lat="46.172097511589527" lon="8.314910307526588">
        <time>2003-04-26T08:28:22Z</time>
      </trkpt>
      <trkpt lat="46.172135062515736" lon="8.314945176243782">
        <time>2003-04-26T08:28:23Z</time>
      </trkpt>
      <trkpt lat="46.172202117741108" lon="8.315025642514229">
        <time>2003-04-26T08:28:25Z</time>
      </trkpt>
      <trkpt lat="46.172259533777833" lon="8.315122034400702">
        <time>2003-04-26T08:28:27Z</time>
      </trkpt>
      <trkpt lat="46.172436559572816" lon="8.315371479839087">
        <time>2003-04-26T08:28:37Z</time>
      </trkpt>
      <trkpt lat="46.172626996412873" lon="8.315728213638067">
        <time>2003-04-26T08:28:56Z</time>
      </trkpt>
      <trkpt lat="46.172956908121705" lon="8.316221740096808">
        <time>2003-04-26T08:29:24Z</time>
      </trkpt>
      <trkpt lat="46.173367286100984" lon="8.316479232162237">
        <time>2003-04-26T08:29:48Z</time>
      </trkpt>
      <trkpt lat="46.173493349924684" lon="8.316964711993933">
        <time>2003-04-26T08:30:05Z</time>
      </trkpt>
      <trkpt lat="46.173702562227845" lon="8.317552115768194">
        <time>2003-04-26T08:30:25Z</time>
      </trkpt>
      <trkpt lat="46.173686468973756" lon="8.317696955054998">
        <time>2003-04-26T08:30:29Z</time>
      </trkpt>
      <trkpt lat="46.173659646883607" lon="8.317766692489386">
        <time>2003-04-26T08:30:31Z</time>
      </trkpt>
      <trkpt lat="46.173428976908326" lon="8.318351414054632">
        <time>2003-04-26T08:30:48Z</time>
      </trkpt>
      <trkpt lat="46.17345311678946" lon="8.318472113460302">
        <time>2003-04-26T08:30:52Z</time>
      </trkpt>
      <trkpt lat="46.173461163416505" lon="8.318501617759466">
        <time>2003-04-26T08:30:53Z</time>
      </trkpt>
      <trkpt lat="46.173504078760743" lon="8.319043423980475">
        <time>2003-04-26T08:31:13Z</time>
      </trkpt>
      <trkpt lat="46.173538947477937" lon="8.319754209369421">
        <time>2003-04-26T08:31:39Z</time>
      </trkpt>
      <trkpt lat="46.173864835873246" lon="8.319970043376088">
        <time>2003-04-26T08:31:56Z</time>
      </trkpt>
      <trkpt lat="46.174167925491929" lon="8.320117564871907">
        <time>2003-04-26T08:32:38Z</time>
      </trkpt>
      <trkpt lat="46.174280578270555" lon="8.320160480216146">
        <time>2003-04-26T08:32:42Z</time>
      </trkpt>
      <trkpt lat="46.174709731712937" lon="8.320372374728322">
        <time>2003-04-26T08:32:52Z</time>
      </trkpt>
      <trkpt lat="46.174833113327622" lon="8.320404561236501">
        <time>2003-04-26T08:32:55Z</time>
      </trkpt>
      <trkpt lat="46.174908215180039" lon="8.320380421355367">
        <time>2003-04-26T08:32:57Z</time>
      </trkpt>
      <trkpt lat="46.174980634823442" lon="8.320380421355367">
        <time>2003-04-26T08:32:59Z</time>
      </trkpt>
      <trkpt lat="46.175106698647141" lon="8.320428701117635">
        <time>2003-04-26T08:33:03Z</time>
      </trkpt>
      <trkpt lat="46.175852352753282" lon="8.320721061900258">
        <time>2003-04-26T08:33:30Z</time>
      </trkpt>
      <trkpt lat="46.17650949396193" lon="8.321093888953328">
        <time>2003-04-26T08:33:57Z</time>
      </trkpt>
      <trkpt lat="46.17652022279799" lon="8.321118028834462">
        <time>2003-04-26T08:33:58Z</time>
      </trkpt>
      <trkpt lat="46.17652558721602" lon="8.321144850924611">
        <time>2003-04-26T08:33:59Z</time>
      </trkpt>
      <trkpt lat="46.176522905007005" lon="8.321225317195058">
        <time>2003-04-26T08:34:02Z</time>
      </trkpt>
      <trkpt lat="46.176544362679124" lon="8.321764441207051">
        <time>2003-04-26T08:34:16Z</time>
      </trkpt>
      <trkpt lat="46.176559198647738" lon="8.3218102902174">
        <time>2003-04-26T08:34:17Z</time>
      </trkpt>
      <trkpt lat="46.176894474774599" lon="8.322325274348259">
        <time>2003-04-26T08:34:32Z</time>
      </trkpt>
      <trkpt lat="46.177052725106478" lon="8.322325274348259">
        <time>2003-04-26T08:34:37Z</time>
      </trkpt>
      <trkpt lat="46.177404094487429" lon="8.322327956557274">
        <time>2003-04-26T08:34:45Z</time>
      </trkpt>
      <trkpt lat="46.177565027028322" lon="8.322483524680138">
        <time>2003-04-26T08:34:50Z</time>
      </trkpt>
      <trkpt lat="46.177615988999605" lon="8.322563990950584">
        <time>2003-04-26T08:34:53Z</time>
      </trkpt>
      <trkpt lat="46.177524793893099" lon="8.322631046175957">
        <time>2003-04-26T08:35:00Z</time>
      </trkpt>
      <trkpt lat="46.17749260738492" lon="8.322622999548912">
        <time>2003-04-26T08:35:02Z</time>
      </trkpt>
      <trkpt lat="46.176977623254061" lon="8.322437927126885">
        <time>2003-04-26T08:35:23Z</time>
      </trkpt>
      <trkpt lat="46.17637949064374" lon="8.322113379836083">
        <time>2003-04-26T08:35:42Z</time>
      </trkpt>
      <trkpt lat="46.175725031644106" lon="8.321740552783012">
        <time>2003-04-26T08:36:08Z</time>
      </trkpt>
      <trkpt lat="46.175234187394381" lon="8.321534022688866">
        <time>2003-04-26T08:36:30Z</time>
      </trkpt>
      <trkpt lat="46.174826491624117" lon="8.321386501193047">
        <time>2003-04-26T08:36:50Z</time>
      </trkpt>
      <trkpt lat="46.174633372575045" lon="8.321724459528923">
        <time>2003-04-26T08:37:17Z</time>
      </trkpt>
      <trkpt lat="46.174637228250504" lon="8.321921601891518">
        <time>2003-04-26T08:37:22Z</time>
      </trkpt>
      <trkpt lat="46.174757927656174" lon="8.322203233838081">
        <time>2003-04-26T08:37:28Z</time>
      </trkpt>
      <trkpt lat="46.174792796373367" lon="8.322307839989662">
        <time>2003-04-26T08:37:31Z</time>
      </trkpt>
      <trkpt lat="46.174800843000412" lon="8.322342708706856">
        <time>2003-04-26T08:37:32Z</time>
      </trkpt>
      <trkpt lat="46.174824982881546" lon="8.322385624051094">
        <time>2003-04-26T08:37:33Z</time>
      </trkpt>
      <trkpt lat="46.174910813570023" lon="8.322511687874794">
        <time>2003-04-26T08:37:36Z</time>
      </trkpt>
      <trkpt lat="46.174937635660172" lon="8.32261897623539">
        <time>2003-04-26T08:37:38Z</time>
      </trkpt>
      <trkpt lat="46.174892038106918" lon="8.322924748063088">
        <time>2003-04-26T08:37:43Z</time>
      </trkpt>
      <trkpt lat="46.174937635660172" lon="8.323265388607979">
        <time>2003-04-26T08:37:54Z</time>
      </trkpt>
      <trkpt lat="46.17511197924614" lon="8.323662355542183">
        <time>2003-04-26T08:38:13Z</time>
      </trkpt>
      <trkpt lat="46.175364106893539" lon="8.324072733521462">
        <time>2003-04-26T08:38:35Z</time>
      </trkpt>
      <trkpt lat="46.175374835729599" lon="8.32412101328373">
        <time>2003-04-26T08:38:37Z</time>
      </trkpt>
      <trkpt lat="46.175514310598373" lon="8.324515298008919">
        <time>2003-04-26T08:38:54Z</time>
      </trkpt>
      <trkpt lat="46.175573319196701" lon="8.32460917532444">
        <time>2003-04-26T08:38:57Z</time>
      </trkpt>
      <trkpt lat="46.175600308924913" lon="8.324615294113755">
        <time>2003-04-26T08:38:58Z</time>
      </trkpt>
      <trkpt lat="46.175621766597033" lon="8.32461261190474">
        <time>2003-04-26T08:38:59Z</time>
      </trkpt>
      <trkpt lat="46.175640542060137" lon="8.324655527248979">
        <time>2003-04-26T08:39:00Z</time>
      </trkpt>
      <trkpt lat="46.175661999732256" lon="8.324695760384202">
        <time>2003-04-26T08:39:01Z</time>
      </trkpt>
      <trkpt lat="46.175723690539598" lon="8.324899608269334">
        <time>2003-04-26T08:39:03Z</time>
      </trkpt>
      <trkpt lat="46.175745148211718" lon="8.324902290478349">
        <time>2003-04-26T08:39:04Z</time>
      </trkpt>
      <trkpt lat="46.175804156810045" lon="8.324899608269334">
        <time>2003-04-26T08:39:06Z</time>
      </trkpt>
      <trkpt lat="46.175828296691179" lon="8.324899608269334">
        <time>2003-04-26T08:39:07Z</time>
      </trkpt>
      <trkpt lat="46.175857800990343" lon="8.324998850002885">
        <time>2003-04-26T08:39:08Z</time>
      </trkpt>
      <trkpt lat="46.175889987498522" lon="8.324972027912736">
        <time>2003-04-26T08:39:09Z</time>
      </trkpt>
      <trkpt lat="46.17592753842473" lon="8.324934476986527">
        <time>2003-04-26T08:39:10Z</time>
      </trkpt>
      <trkpt lat="46.176005322486162" lon="8.324886197224259">
        <time>2003-04-26T08:39:12Z</time>
      </trkpt>
      <trkpt lat="46.17605896666646" lon="8.324821824207902">
        <time>2003-04-26T08:39:16Z</time>
      </trkpt>
      <trkpt lat="46.176088470965624" lon="8.324808413162828">
        <time>2003-04-26T08:39:17Z</time>
      </trkpt>
      <trkpt lat="46.176164746284485" lon="8.324751332402229">
        <time>2003-04-26T08:39:22Z</time>
      </trkpt>
      <trkpt lat="46.176188886165619" lon="8.324708417057991">
        <time>2003-04-26T08:39:24Z</time>
      </trkpt>
      <trkpt lat="46.176242530345917" lon="8.324630632996559">
        <time>2003-04-26T08:39:29Z</time>
      </trkpt>
      <trkpt lat="46.176250576972961" lon="8.32461453974247">
        <time>2003-04-26T08:39:30Z</time>
      </trkpt>
      <trkpt lat="46.176263988018036" lon="8.324595764279366">
        <time>2003-04-26T08:39:31Z</time>
      </trkpt>
      <trkpt lat="46.176272034645081" lon="8.324574306607246">
        <time>2003-04-26T08:39:32Z</time>
      </trkpt>
      <trkpt lat="46.176462471485138" lon="8.324249759316444">
        <time>2003-04-26T08:39:59Z</time>
      </trkpt>
      <trkpt lat="46.176505386829376" lon="8.324158564209938">
        <time>2003-04-26T08:40:05Z</time>
      </trkpt>
      <trkpt lat="46.176542937755585" lon="8.32412101328373">
        <time>2003-04-26T08:40:08Z</time>
      </trkpt>
      <trkpt lat="46.176569759845734" lon="8.324094191193581">
        <time>2003-04-26T08:40:10Z</time>
      </trkpt>
      <trkpt lat="46.176583170890808" lon="8.324080780148506">
        <time>2003-04-26T08:40:11Z</time>
      </trkpt>
      <trkpt lat="46.177092790603638" lon="8.323718681931496">
        <time>2003-04-26T08:42:12Z</time>
      </trkpt>
      <trkpt lat="46.177409291267395" lon="8.323624804615974">
        <time>2003-04-26T08:42:30Z</time>
      </trkpt>
      <trkpt lat="46.177489757537842" lon="8.323608711361885">
        <time>2003-04-26T08:42:37Z</time>
      </trkpt>
      <trkpt lat="46.177380373701453" lon="8.323494214564562">
        <time>2003-04-26T08:42:39Z</time>
      </trkpt>
      <trkpt lat="46.177401831373572" lon="8.323491532355547">
        <time>2003-04-26T08:42:40Z</time>
      </trkpt>
      <trkpt lat="46.177444746717811" lon="8.323488850146532">
        <time>2003-04-26T08:42:42Z</time>
      </trkpt>
      <trkpt lat="46.177458157762885" lon="8.323491532355547">
        <time>2003-04-26T08:42:43Z</time>
      </trkpt>
      <trkpt lat="46.177678098902106" lon="8.323711473494768">
        <time>2003-04-26T08:43:42Z</time>
      </trkpt>
      <trkpt lat="46.177721014246345" lon="8.323706109076738">
        <time>2003-04-26T08:43:43Z</time>
      </trkpt>
      <trkpt lat="46.177750518545508" lon="8.323703426867724">
        <time>2003-04-26T08:43:45Z</time>
      </trkpt>
      <trkpt lat="46.177973141893744" lon="8.323730248957872">
        <time>2003-04-26T08:43:51Z</time>
      </trkpt>
      <trkpt lat="46.178005328401923" lon="8.323730248957872">
        <time>2003-04-26T08:43:52Z</time>
      </trkpt>
      <trkpt lat="46.178445210680366" lon="8.323740977793932">
        <time>2003-04-26T08:44:07Z</time>
      </trkpt>
      <trkpt lat="46.17870002053678" lon="8.323813397437334">
        <time>2003-04-26T08:44:20Z</time>
      </trkpt>
      <trkpt lat="46.178718795999885" lon="8.323810715228319">
        <time>2003-04-26T08:44:21Z</time>
      </trkpt>
      <trkpt lat="46.179193546995521" lon="8.323971647769213">
        <time>2003-04-26T08:44:43Z</time>
      </trkpt>
      <trkpt lat="46.179727306589484" lon="8.324009198695421">
        <time>2003-04-26T08:45:04Z</time>
      </trkpt>
      <trkpt lat="46.179774329066277" lon="8.323985645547509">
        <time>2003-04-26T08:45:06Z</time>
      </trkpt>
      <trkpt lat="46.179838702082634" lon="8.323980281129479">
        <time>2003-04-26T08:45:08Z</time>
      </trkpt>
      <trkpt lat="46.17980919778347" lon="8.323881039395928">
        <time>2003-04-26T08:45:10Z</time>
      </trkpt>
      <trkpt lat="46.179913803935051" lon="8.323897132650018">
        <time>2003-04-26T08:45:13Z</time>
      </trkpt>
      <trkpt lat="46.179937943816185" lon="8.323902497068048">
        <time>2003-04-26T08:45:14Z</time>
      </trkpt>
      <trkpt lat="46.179978176951408" lon="8.323905179277062">
        <time>2003-04-26T08:45:16Z</time>
      </trkpt>
      <trkpt lat="46.180004999041557" lon="8.323907861486077">
        <time>2003-04-26T08:45:17Z</time>
      </trkpt>
      <trkpt lat="46.180082783102989" lon="8.323894450441003">
        <time>2003-04-26T08:45:20Z</time>
      </trkpt>
      <trkpt lat="46.180157884955406" lon="8.323859581723809">
        <time>2003-04-26T08:45:23Z</time>
      </trkpt>
      <trkpt lat="46.180224940180779" lon="8.323784479871392">
        <time>2003-04-26T08:45:28Z</time>
      </trkpt>
      <trkpt lat="46.18056021630764" lon="8.32360208965838">
        <time>2003-04-26T08:46:36Z</time>
      </trkpt>
      <trkpt lat="46.180576309561729" lon="8.323559174314141">
        <time>2003-04-26T08:46:37Z</time>
      </trkpt>
      <trkpt lat="46.180648729205132" lon="8.323620865121484">
        <time>2003-04-26T08:46:43Z</time>
      </trkpt>
      <trkpt lat="46.18068628013134" lon="8.323661098256707">
        <time>2003-04-26T08:46:49Z</time>
      </trkpt>
      <trkpt lat="46.180877219885588" lon="8.323968881741166">
        <time>2003-04-26T08:52:18Z</time>
      </trkpt>
      <trkpt lat="46.180917453020811" lon="8.324033254757524">
        <time>2003-04-26T08:52:20Z</time>
      </trkpt>
      <trkpt lat="46.181118618696928" lon="8.324296111240983">
        <time>2003-04-26T08:52:27Z</time>
      </trkpt>
      <trkpt lat="46.181137394160032" lon="8.324312204495072">
        <time>2003-04-26T08:52:28Z</time>
      </trkpt>
      <trkpt lat="46.181268822401762" lon="8.324403399601579">
        <time>2003-04-26T08:52:47Z</time>
      </trkpt>
      <trkpt lat="46.181357335299253" lon="8.324615294113755">
        <time>2003-04-26T08:53:11Z</time>
      </trkpt>
      <trkpt lat="46.181547772139311" lon="8.324840599671006">
        <time>2003-04-26T08:54:02Z</time>
      </trkpt>
      <trkpt lat="46.181628238409758" lon="8.325017625465989">
        <time>2003-04-26T08:54:06Z</time>
      </trkpt>
      <trkpt lat="46.18169529363513" lon="8.325250977650285">
        <time>2003-04-26T08:54:09Z</time>
      </trkpt>
      <trkpt lat="46.181630920618773" lon="8.325588935986161">
        <time>2003-04-26T08:54:16Z</time>
      </trkpt>
      <trkpt lat="46.181588005274534" lon="8.325782055035234">
        <time>2003-04-26T08:54:23Z</time>
      </trkpt>
      <trkpt lat="46.181577276438475" lon="8.325929576531053">
        <time>2003-04-26T08:54:29Z</time>
      </trkpt>
      <trkpt lat="46.18157995864749" lon="8.326761061325669">
        <time>2003-04-26T08:54:54Z</time>
      </trkpt>
      <trkpt lat="46.181435119360685" lon="8.327592546120286">
        <time>2003-04-26T08:55:22Z</time>
      </trkpt>
      <trkpt lat="46.181366890668869" lon="8.32787954248488">
        <time>2003-04-26T08:55:39Z</time>
      </trkpt>
      <trkpt lat="46.181361526250839" lon="8.327906364575028">
        <time>2003-04-26T08:55:41Z</time>
      </trkpt>
      <trkpt lat="46.181230098009109" lon="8.328268462792039">
        <time>2003-04-26T08:56:07Z</time>
      </trkpt>
      <trkpt lat="46.18121936917305" lon="8.328287238255143">
        <time>2003-04-26T08:56:08Z</time>
      </trkpt>
      <trkpt lat="46.180484443902969" lon="8.328456217423081">
        <time>2003-04-26T08:57:39Z</time>
      </trkpt>
      <trkpt lat="46.180476397275925" lon="8.328469628468156">
        <time>2003-04-26T08:57:40Z</time>
      </trkpt>
      <trkpt lat="46.180350333452225" lon="8.328544730320573">
        <time>2003-04-26T08:57:45Z</time>
      </trkpt>
      <trkpt lat="46.180280596017838" lon="8.328547412529588">
        <time>2003-04-26T08:57:48Z</time>
      </trkpt>
      <trkpt lat="46.180264502763748" lon="8.328576916828752">
        <time>2003-04-26T08:57:49Z</time>
      </trkpt>
      <trkpt lat="46.180213540792465" lon="8.328542048111558">
        <time>2003-04-26T08:57:50Z</time>
      </trkpt>
      <trkpt lat="46.179669052362442" lon="8.328582281246781">
        <time>2003-04-26T08:58:11Z</time>
      </trkpt>
      <trkpt lat="46.179306954145432" lon="8.328426713123918">
        <time>2003-04-26T08:58:37Z</time>
      </trkpt>
      <trkpt lat="46.179146021604538" lon="8.328297967091203">
        <time>2003-04-26T08:59:04Z</time>
      </trkpt>
      <trkpt lat="46.178947538137436" lon="8.328067297115922">
        <time>2003-04-26T08:59:54Z</time>
      </trkpt>
      <trkpt lat="46.178882997483015" lon="8.328103674575687">
        <time>2003-04-26T08:59:57Z</time>
      </trkpt>
      <trkpt lat="46.178861539810896" lon="8.328111721202731">
        <time>2003-04-26T08:59:58Z</time>
      </trkpt>
      <trkpt lat="46.178813260048628" lon="8.328111721202731">
        <time>2003-04-26T09:00:00Z</time>
      </trkpt>
      <trkpt lat="46.178483348339796" lon="8.327953470870853">
        <time>2003-04-26T09:00:15Z</time>
      </trkpt>
      <trkpt lat="46.178357284516096" lon="8.327862275764346">
        <time>2003-04-26T09:00:27Z</time>
      </trkpt>
      <trkpt lat="46.178306322544813" lon="8.327894462272525">
        <time>2003-04-26T09:00:30Z</time>
      </trkpt>
      <trkpt lat="46.178241949528456" lon="8.327873004600406">
        <time>2003-04-26T09:00:32Z</time>
      </trkpt>
      <trkpt lat="46.177847664803267" lon="8.32777644507587">
        <time>2003-04-26T09:00:43Z</time>
      </trkpt>
      <trkpt lat="46.177461426705122" lon="8.32775498740375">
        <time>2003-04-26T09:00:55Z</time>
      </trkpt>
      <trkpt lat="46.177305858582258" lon="8.327701343223453">
        <time>2003-04-26T09:00:59Z</time>
      </trkpt>
      <trkpt lat="46.177279036492109" lon="8.327677203342319">
        <time>2003-04-26T09:01:00Z</time>
      </trkpt>
      <trkpt lat="46.177238803356886" lon="8.327628923580051">
        <time>2003-04-26T09:01:02Z</time>
      </trkpt>
      <trkpt lat="46.177220027893782" lon="8.327599419280887">
        <time>2003-04-26T09:01:03Z</time>
      </trkpt>
      <trkpt lat="46.177161019295454" lon="8.327521635219455">
        <time>2003-04-26T09:01:06Z</time>
      </trkpt>
      <trkpt lat="46.177141657099128" lon="8.327499590814114">
        <time>2003-04-26T09:01:07Z</time>
      </trkpt>
      <trkpt lat="46.177120199427009" lon="8.327488861978054">
        <time>2003-04-26T09:01:09Z</time>
      </trkpt>
      <trkpt lat="46.177074601873755" lon="8.327462039887905">
        <time>2003-04-26T09:01:11Z</time>
      </trkpt>
      <trkpt lat="46.177037050947547" lon="8.327488861978054">
        <time>2003-04-26T09:01:13Z</time>
      </trkpt>
      <trkpt lat="46.177018275484443" lon="8.327502273023129">
        <time>2003-04-26T09:01:14Z</time>
      </trkpt>
      <trkpt lat="46.176897576078773" lon="8.327620290219784">
        <time>2003-04-26T09:01:39Z</time>
      </trkpt>
      <trkpt lat="46.176892211660743" lon="8.327631019055843">
        <time>2003-04-26T09:01:40Z</time>
      </trkpt>
      <trkpt lat="46.176870753988624" lon="8.327671252191067">
        <time>2003-04-26T09:01:44Z</time>
      </trkpt>
      <trkpt lat="46.176868071779609" lon="8.327679298818111">
        <time>2003-04-26T09:01:45Z</time>
      </trkpt>
      <trkpt lat="46.176736643537879" lon="8.327861689031124">
        <time>2003-04-26T09:02:10Z</time>
      </trkpt>
      <trkpt lat="46.176717868074775" lon="8.327864371240139">
        <time>2003-04-26T09:02:11Z</time>
      </trkpt>
      <trkpt lat="46.176674952730536" lon="8.327864371240139">
        <time>2003-04-26T09:02:13Z</time>
      </trkpt>
      <trkpt lat="46.176645448431373" lon="8.327856324613094">
        <time>2003-04-26T09:02:14Z</time>
      </trkpt>
      <trkpt lat="46.17659448646009" lon="8.327834866940975">
        <time>2003-04-26T09:02:16Z</time>
      </trkpt>
      <trkpt lat="46.176526760682464" lon="8.327810894697905">
        <time>2003-04-26T09:02:19Z</time>
      </trkpt>
      <trkpt lat="46.176373874768615" lon="8.327649962157011">
        <time>2003-04-26T09:02:26Z</time>
      </trkpt>
      <trkpt lat="46.176341688260436" lon="8.327655326575041">
        <time>2003-04-26T09:02:27Z</time>
      </trkpt>
      <trkpt lat="46.176304137334228" lon="8.327668737620115">
        <time>2003-04-26T09:02:28Z</time>
      </trkpt>
      <trkpt lat="46.176207577809691" lon="8.327593635767698">
        <time>2003-04-26T09:02:33Z</time>
      </trkpt>
      <trkpt lat="46.176199531182647" lon="8.327569495886564">
        <time>2003-04-26T09:02:34Z</time>
      </trkpt>
      <trkpt lat="46.176086878404021" lon="8.327397834509611">
        <time>2003-04-26T09:02:55Z</time>
      </trkpt>
      <trkpt lat="46.175848161801696" lon="8.327124249190092">
        <time>2003-04-26T09:03:26Z</time>
      </trkpt>
      <trkpt lat="46.175601398572326" lon="8.326821159571409">
        <time>2003-04-26T09:03:52Z</time>
      </trkpt>
      <trkpt lat="46.174890613183379" lon="8.326198887079954">
        <time>2003-04-26T09:06:02Z</time>
      </trkpt>
      <trkpt lat="46.17487988434732" lon="8.326188158243895">
        <time>2003-04-26T09:06:03Z</time>
      </trkpt>
      <trkpt lat="46.174539243802428" lon="8.326091598719358">
        <time>2003-04-26T09:06:32Z</time>
      </trkpt>
      <trkpt lat="46.174399768933654" lon="8.326113056391478">
        <time>2003-04-26T09:06:49Z</time>
      </trkpt>
      <trkpt lat="46.174386357888579" lon="8.326118420809507">
        <time>2003-04-26T09:06:50Z</time>
      </trkpt>
      <trkpt lat="46.174356769770384" lon="8.32615521736443">
        <time>2003-04-26T09:06:53Z</time>
      </trkpt>
      <trkpt lat="46.17433799430728" lon="8.32616058178246">
        <time>2003-04-26T09:06:54Z</time>
      </trkpt>
      <trkpt lat="46.174324583262205" lon="8.32616594620049">
        <time>2003-04-26T09:06:55Z</time>
      </trkpt>
      <trkpt lat="46.174319218844175" lon="8.326182039454579">
        <time>2003-04-26T09:06:56Z</time>
      </trkpt>
      <trkpt lat="46.174233388155699" lon="8.326251776888967">
        <time>2003-04-26T09:07:04Z</time>
      </trkpt>
      <trkpt lat="46.174048315733671" lon="8.326713116839528">
        <time>2003-04-26T09:07:45Z</time>
      </trkpt>
      <trkpt lat="46.174018811434507" lon="8.326793583109975">
        <time>2003-04-26T09:07:48Z</time>
      </trkpt>
      <trkpt lat="46.173935662955046" lon="8.326871367171407">
        <time>2003-04-26T09:07:54Z</time>
      </trkpt>
      <trkpt lat="46.173774730414152" lon="8.326981337741017">
        <time>2003-04-26T09:09:19Z</time>
      </trkpt>
      <trkpt lat="46.173686217516661" lon="8.326957197859883">
        <time>2003-04-26T09:09:27Z</time>
      </trkpt>
      <trkpt lat="46.173662077635527" lon="8.326935740187764">
        <time>2003-04-26T09:09:29Z</time>
      </trkpt>
      <trkpt lat="46.173452865332365" lon="8.326766761019826">
        <time>2003-04-26T09:09:58Z</time>
      </trkpt>
      <trkpt lat="46.173375081270933" lon="8.326774807646871">
        <time>2003-04-26T09:10:00Z</time>
      </trkpt>
      <trkpt lat="46.173358988016844" lon="8.326782854273915">
        <time>2003-04-26T09:10:01Z</time>
      </trkpt>
      <trkpt lat="46.17327424697578" lon="8.326661819592118">
        <time>2003-04-26T09:10:10Z</time>
      </trkpt>
      <trkpt lat="46.173266200348735" lon="8.326640361919999">
        <time>2003-04-26T09:10:11Z</time>
      </trkpt>
      <trkpt lat="46.173217920586467" lon="8.326584035530686">
        <time>2003-04-26T09:10:40Z</time>
      </trkpt>
      <trkpt lat="46.173225967213511" lon="8.326468700543046">
        <time>2003-04-26T09:10:46Z</time>
      </trkpt>
      <trkpt lat="46.173225967213511" lon="8.326439196243882">
        <time>2003-04-26T09:10:47Z</time>
      </trkpt>
      <trkpt lat="46.173217920586467" lon="8.326385552063584">
        <time>2003-04-26T09:10:49Z</time>
      </trkpt>
      <trkpt lat="46.173191098496318" lon="8.326318496838212">
        <time>2003-04-26T09:10:50Z</time>
      </trkpt>
      <trkpt lat="46.173169640824199" lon="8.32625144161284">
        <time>2003-04-26T09:10:51Z</time>
      </trkpt>
      <trkpt lat="46.173113314434886" lon="8.326144153252244">
        <time>2003-04-26T09:10:53Z</time>
      </trkpt>
      <trkpt lat="46.173089174553752" lon="8.326082462444902">
        <time>2003-04-26T09:10:54Z</time>
      </trkpt>
      <trkpt lat="46.173083810135722" lon="8.326052958145738">
        <time>2003-04-26T09:10:55Z</time>
      </trkpt>
      <trkpt lat="46.173081127926707" lon="8.325977856293321">
        <time>2003-04-26T09:10:59Z</time>
      </trkpt>
      <trkpt lat="46.173086492344737" lon="8.325900072231889">
        <time>2003-04-26T09:11:02Z</time>
      </trkpt>
      <trkpt lat="46.173083810135722" lon="8.325846428051591">
        <time>2003-04-26T09:11:04Z</time>
      </trkpt>
      <trkpt lat="46.173068135976791" lon="8.325799321755767">
        <time>2003-04-26T09:11:07Z</time>
      </trkpt>
      <trkpt lat="46.172824054956436" lon="8.325525736436248">
        <time>2003-04-26T09:14:15Z</time>
      </trkpt>
      <trkpt lat="46.172786504030228" lon="8.325512325391173">
        <time>2003-04-26T09:14:17Z</time>
      </trkpt>
      <trkpt lat="46.172770410776138" lon="8.325501596555114">
        <time>2003-04-26T09:14:18Z</time>
      </trkpt>
      <trkpt lat="46.172743588685989" lon="8.325474774464965">
        <time>2003-04-26T09:14:20Z</time>
      </trkpt>
      <trkpt lat="46.1727274954319" lon="8.325469410046935">
        <time>2003-04-26T09:14:21Z</time>
      </trkpt>
      <trkpt lat="46.172711402177811" lon="8.32546136341989">
        <time>2003-04-26T09:14:22Z</time>
      </trkpt>
      <trkpt lat="46.172314435243607" lon="8.325343346223235">
        <time>2003-04-26T09:14:44Z</time>
      </trkpt>
      <trkpt lat="46.171654611825943" lon="8.32548282109201">
        <time>2003-04-26T09:15:10Z</time>
      </trkpt>
      <trkpt lat="46.17085263133049" lon="8.325941478833556">
        <time>2003-04-26T09:15:44Z</time>
      </trkpt>
      <trkpt lat="46.170410066843033" lon="8.32647523842752">
        <time>2003-04-26T09:16:07Z</time>
      </trkpt>
      <trkpt lat="46.170120388269424" lon="8.326654946431518">
        <time>2003-04-26T09:17:46Z</time>
      </trkpt>
      <trkpt lat="46.170120388269424" lon="8.326582526788116">
        <time>2003-04-26T09:17:48Z</time>
      </trkpt>
      <trkpt lat="46.17011770606041" lon="8.326520835980773">
        <time>2003-04-26T09:17:50Z</time>
      </trkpt>
      <trkpt lat="46.170115945860744" lon="8.326496360823512">
        <time>2003-04-26T09:17:51Z</time>
      </trkpt>
      <trkpt lat="46.170102534815669" lon="8.326461492106319">
        <time>2003-04-26T09:17:53Z</time>
      </trkpt>
      <trkpt lat="46.170043526217341" lon="8.326440034434199">
        <time>2003-04-26T09:17:59Z</time>
      </trkpt>
      <trkpt lat="46.169751165434718" lon="8.326110122725368">
        <time>2003-04-26T09:22:24Z</time>
      </trkpt>
      <trkpt lat="46.169906733557582" lon="8.325941143557429">
        <time>2003-04-26T09:22:51Z</time>
      </trkpt>
      <trkpt lat="46.169930873438716" lon="8.325911639258266">
        <time>2003-04-26T09:22:52Z</time>
      </trkpt>
      <trkpt lat="46.169957695528865" lon="8.325879452750087">
        <time>2003-04-26T09:22:53Z</time>
      </trkpt>
      <trkpt lat="46.170062301680446" lon="8.325745342299342">
        <time>2003-04-26T09:22:58Z</time>
      </trkpt>
      <trkpt lat="46.17008107714355" lon="8.325710473582149">
        <time>2003-04-26T09:22:59Z</time>
      </trkpt>
      <trkpt lat="46.170140085741878" lon="8.325605867430568">
        <time>2003-04-26T09:23:02Z</time>
      </trkpt>
      <trkpt lat="46.170191047713161" lon="8.325549541041255">
        <time>2003-04-26T09:23:04Z</time>
      </trkpt>
      <trkpt lat="46.170376120135188" lon="8.325343010947108">
        <time>2003-04-26T09:23:10Z</time>
      </trkpt>
      <trkpt lat="46.170410988852382" lon="8.325195489451289">
        <time>2003-04-26T09:23:15Z</time>
      </trkpt>
      <trkpt lat="46.170432446524501" lon="8.324997005984187">
        <time>2003-04-26T09:23:22Z</time>
      </trkpt>
      <trkpt lat="46.170469745993614" lon="8.324782680720091">
        <time>2003-04-26T09:23:43Z</time>
      </trkpt>
      <trkpt lat="46.170477792620659" lon="8.324758540838957">
        <time>2003-04-26T09:23:44Z</time>
      </trkpt>
      <trkpt lat="46.170488521456718" lon="8.324729036539793">
        <time>2003-04-26T09:23:45Z</time>
      </trkpt>
      <trkpt lat="46.170499250292778" lon="8.324702214449644">
        <time>2003-04-26T09:23:46Z</time>
      </trkpt>
      <trkpt lat="46.170509979128838" lon="8.32467271015048">
        <time>2003-04-26T09:23:47Z</time>
      </trkpt>
      <trkpt lat="46.170520707964897" lon="8.324659299105406">
        <time>2003-04-26T09:23:50Z</time>
      </trkpt>
      <trkpt lat="46.170560941100121" lon="8.324629794806242">
        <time>2003-04-26T09:23:52Z</time>
      </trkpt>
      <trkpt lat="46.17057703435421" lon="8.324613701552153">
        <time>2003-04-26T09:23:53Z</time>
      </trkpt>
      <trkpt lat="46.170611903071404" lon="8.324570786207914">
        <time>2003-04-26T09:23:56Z</time>
      </trkpt>
      <trkpt lat="46.170617267489433" lon="8.32455201074481">
        <time>2003-04-26T09:23:57Z</time>
      </trkpt>
      <trkpt lat="46.170630678534508" lon="8.324498366564512">
        <time>2003-04-26T09:23:59Z</time>
      </trkpt>
      <trkpt lat="46.170638725161552" lon="8.324474226683378">
        <time>2003-04-26T09:24:00Z</time>
      </trkpt>
      <trkpt lat="46.170729920268059" lon="8.324374984949827">
        <time>2003-04-26T09:24:05Z</time>
      </trkpt>
      <trkpt lat="46.171193942427635" lon="8.324112128466368">
        <time>2003-04-26T09:24:22Z</time>
      </trkpt>
      <trkpt lat="46.171208443120122" lon="8.324081283062697">
        <time>2003-04-26T09:24:50Z</time>
      </trkpt>
      <trkpt lat="46.171181621029973" lon="8.324054460972548">
        <time>2003-04-26T09:24:51Z</time>
      </trkpt>
      <trkpt lat="46.17114138789475" lon="8.324022274464369">
        <time>2003-04-26T09:24:53Z</time>
      </trkpt>
      <trkpt lat="46.17112529464066" lon="8.32400081679225">
        <time>2003-04-26T09:24:54Z</time>
      </trkpt>
      <trkpt lat="46.171087743714452" lon="8.323952537029982">
        <time>2003-04-26T09:24:56Z</time>
      </trkpt>
      <trkpt lat="46.171082379296422" lon="8.323850613087416">
        <time>2003-04-26T09:24:59Z</time>
      </trkpt>
      <trkpt lat="46.171109201386571" lon="8.323751371353865">
        <time>2003-04-26T09:25:01Z</time>
      </trkpt>
      <trkpt lat="46.171127976849675" lon="8.323676269501448">
        <time>2003-04-26T09:25:02Z</time>
      </trkpt>
      <trkpt lat="46.171366693452001" lon="8.323059361428022">
        <time>2003-04-26T09:25:10Z</time>
      </trkpt>
      <trkpt lat="46.171428384259343" lon="8.322984259575605">
        <time>2003-04-26T09:26:19Z</time>
      </trkpt>
      <trkpt lat="46.171527625992894" lon="8.323188107460737">
        <time>2003-04-26T09:26:28Z</time>
      </trkpt>
      <trkpt lat="46.171559812501073" lon="8.323338311165571">
        <time>2003-04-26T09:26:31Z</time>
      </trkpt>
      <trkpt lat="46.171575905755162" lon="8.323614578694105">
        <time>2003-04-26T09:26:34Z</time>
      </trkpt>
      <trkpt lat="46.171712698414922" lon="8.323794286698103">
        <time>2003-04-26T09:26:37Z</time>
      </trkpt>
      <trkpt lat="46.171771874651313" lon="8.323843404650688">
        <time>2003-04-26T09:26:38Z</time>
      </trkpt>
      <trkpt lat="46.171833565458655" lon="8.323878273367882">
        <time>2003-04-26T09:26:39Z</time>
      </trkpt>
      <trkpt lat="46.171983769163489" lon="8.323945328593254">
        <time>2003-04-26T09:26:42Z</time>
      </trkpt>
      <trkpt lat="46.172091057524085" lon="8.323913142085075">
        <time>2003-04-26T09:26:48Z</time>
      </trkpt>
      <trkpt lat="46.172109832987189" lon="8.323899731040001">
        <time>2003-04-26T09:26:49Z</time>
      </trkpt>
      <trkpt lat="46.172125926241279" lon="8.323886319994927">
        <time>2003-04-26T09:26:50Z</time>
      </trkpt>
      <trkpt lat="46.172410240396857" lon="8.323736116290093">
        <time>2003-04-26T09:27:06Z</time>
      </trkpt>
      <trkpt lat="46.172402193769813" lon="8.323695883154869">
        <time>2003-04-26T09:27:08Z</time>
      </trkpt>
      <trkpt lat="46.172549715265632" lon="8.323636874556541">
        <time>2003-04-26T09:27:12Z</time>
      </trkpt>
      <trkpt lat="46.17258726619184" lon="8.323634192347527">
        <time>2003-04-26T09:27:13Z</time>
      </trkpt>
      <trkpt lat="46.172624817118049" lon="8.323639556765556">
        <time>2003-04-26T09:27:14Z</time>
      </trkpt>
      <trkpt lat="46.172702601179481" lon="8.323636874556541">
        <time>2003-04-26T09:27:16Z</time>
      </trkpt>
      <trkpt lat="46.172737469896674" lon="8.323591277003288">
        <time>2003-04-26T09:27:18Z</time>
      </trkpt>
      <trkpt lat="46.172788431867957" lon="8.323486670851708">
        <time>2003-04-26T09:27:20Z</time>
      </trkpt>
      <trkpt lat="46.172806452959776" lon="8.323438223451376">
        <time>2003-04-26T09:27:21Z</time>
      </trkpt>
      <trkpt lat="46.172870825976133" lon="8.323274608701468">
        <time>2003-04-26T09:27:24Z</time>
      </trkpt>
      <trkpt lat="46.172919105738401" lon="8.323218282312155">
        <time>2003-04-26T09:27:26Z</time>
      </trkpt>
      <trkpt lat="46.172964703291655" lon="8.323183413594961">
        <time>2003-04-26T09:27:27Z</time>
      </trkpt>
      <trkpt lat="46.173093449324369" lon="8.323092218488455">
        <time>2003-04-26T09:27:33Z</time>
      </trkpt>
      <trkpt lat="46.173104178160429" lon="8.32308953627944">
        <time>2003-04-26T09:27:34Z</time>
      </trkpt>
      <trkpt lat="46.173321437090635" lon="8.322695251554251">
        <time>2003-04-26T09:28:10Z</time>
      </trkpt>
      <trkpt lat="46.173313390463591" lon="8.322679158300161">
        <time>2003-04-26T09:28:11Z</time>
      </trkpt>
      <trkpt lat="46.173313390463591" lon="8.322663065046072">
        <time>2003-04-26T09:28:12Z</time>
      </trkpt>
      <trkpt lat="46.173305343836546" lon="8.322620149701834">
        <time>2003-04-26T09:28:14Z</time>
      </trkpt>
      <trkpt lat="46.173305343836546" lon="8.32260137423873">
        <time>2003-04-26T09:28:15Z</time>
      </trkpt>
      <trkpt lat="46.173302661627531" lon="8.322574552148581">
        <time>2003-04-26T09:28:16Z</time>
      </trkpt>
      <trkpt lat="46.173299979418516" lon="8.322547730058432">
        <time>2003-04-26T09:28:17Z</time>
      </trkpt>
      <trkpt lat="46.173289250582457" lon="8.322496768087149">
        <time>2003-04-26T09:28:19Z</time>
      </trkpt>
      <trkpt lat="46.173280198127031" lon="8.322470029816032">
        <time>2003-04-26T09:28:20Z</time>
      </trkpt>
      <trkpt lat="46.173062939196825" lon="8.321861168369651">
        <time>2003-04-26T09:28:40Z</time>
      </trkpt>
      <trkpt lat="46.172716934233904" lon="8.321238895878196">
        <time>2003-04-26T09:29:00Z</time>
      </trkpt>
      <trkpt lat="46.1724460311234" lon="8.320817789062858">
        <time>2003-04-26T09:29:20Z</time>
      </trkpt>
      <trkpt lat="46.172226089984179" lon="8.320546885952354">
        <time>2003-04-26T09:29:32Z</time>
      </trkpt>
      <trkpt lat="46.172215361148119" lon="8.320525428280234">
        <time>2003-04-26T09:29:33Z</time>
      </trkpt>
      <trkpt lat="46.172126848250628" lon="8.320321580395103">
        <time>2003-04-26T09:29:39Z</time>
      </trkpt>
      <trkpt lat="46.172097343951464" lon="8.32027061842382">
        <time>2003-04-26T09:29:40Z</time>
      </trkpt>
      <trkpt lat="46.17118002846837" lon="8.319369396194816">
        <time>2003-04-26T09:29:54Z</time>
      </trkpt>
      <trkpt lat="46.171222943812609" lon="8.319077035412192">
        <time>2003-04-26T09:30:25Z</time>
      </trkpt>
      <trkpt lat="46.171241719275713" lon="8.318983158096671">
        <time>2003-04-26T09:30:27Z</time>
      </trkpt>
      <trkpt lat="46.171263176947832" lon="8.318918785080314">
        <time>2003-04-26T09:30:30Z</time>
      </trkpt>
      <trkpt lat="46.171276587992907" lon="8.318897327408195">
        <time>2003-04-26T09:30:31Z</time>
      </trkpt>
      <trkpt lat="46.171308774501085" lon="8.318841001018882">
        <time>2003-04-26T09:30:33Z</time>
      </trkpt>
      <trkpt lat="46.171401981264353" lon="8.318719631060958">
        <time>2003-04-26T09:30:37Z</time>
      </trkpt>
      <trkpt lat="46.171479765325785" lon="8.318644529208541">
        <time>2003-04-26T09:30:39Z</time>
      </trkpt>
      <trkpt lat="46.171758715063334" lon="8.31866062246263">
        <time>2003-04-26T09:30:45Z</time>
      </trkpt>
      <trkpt lat="46.171946469694376" lon="8.318716948851943">
        <time>2003-04-26T09:30:50Z</time>
      </trkpt>
      <trkpt lat="46.17197060957551" lon="8.318719631060958">
        <time>2003-04-26T09:30:51Z</time>
      </trkpt>
      <trkpt lat="46.171992067247629" lon="8.318719631060958">
        <time>2003-04-26T09:30:52Z</time>
      </trkpt>
      <trkpt lat="46.17209130898118" lon="8.318751817569137">
        <time>2003-04-26T09:30:56Z</time>
      </trkpt>
      <trkpt lat="46.172271016985178" lon="8.318861788138747">
        <time>2003-04-26T09:31:05Z</time>
      </trkpt>
      <trkpt lat="46.172271016985178" lon="8.318628435954452">
        <time>2003-04-26T09:31:09Z</time>
      </trkpt>
      <trkpt lat="46.172254923731089" lon="8.318577473983169">
        <time>2003-04-26T09:31:10Z</time>
      </trkpt>
      <trkpt lat="46.172043029218912" lon="8.317973976954818">
        <time>2003-04-26T09:31:22Z</time>
      </trkpt>
      <trkpt lat="46.171927694231272" lon="8.317861324176192">
        <time>2003-04-26T09:31:25Z</time>
      </trkpt>
      <trkpt lat="46.171820405870676" lon="8.317770129069686">
        <time>2003-04-26T09:31:28Z</time>
      </trkpt>
      <trkpt lat="46.171790901571512" lon="8.317727213725448">
        <time>2003-04-26T09:31:29Z</time>
      </trkpt>
      <trkpt lat="46.171760056167841" lon="8.317682286724448">
        <time>2003-04-26T09:31:30Z</time>
      </trkpt>
      <trkpt lat="46.171727869659662" lon="8.317642053589225">
        <time>2003-04-26T09:31:31Z</time>
      </trkpt>
      <trkpt lat="46.171652767807245" lon="8.317540129646659">
        <time>2003-04-26T09:31:33Z</time>
      </trkpt>
      <trkpt lat="46.171607170253992" lon="8.317483803257346">
        <time>2003-04-26T09:31:34Z</time>
      </trkpt>
      <trkpt lat="46.17152938619256" lon="8.317371150478721">
        <time>2003-04-26T09:31:36Z</time>
      </trkpt>
      <trkpt lat="46.171497199684381" lon="8.317309459671378">
        <time>2003-04-26T09:31:37Z</time>
      </trkpt>
      <trkpt lat="46.171430144459009" lon="8.317183395847678">
        <time>2003-04-26T09:31:39Z</time>
      </trkpt>
      <trkpt lat="46.171424780040979" lon="8.317113658413291">
        <time>2003-04-26T09:31:40Z</time>
      </trkpt>
      <trkpt lat="46.171416733413935" lon="8.316794475540519">
        <time>2003-04-26T09:31:44Z</time>
      </trkpt>
      <trkpt lat="46.171489153057337" lon="8.316453834995627">
        <time>2003-04-26T09:31:49Z</time>
      </trkpt>
      <trkpt lat="46.171473059803247" lon="8.31638409756124">
        <time>2003-04-26T09:31:50Z</time>
      </trkpt>
      <trkpt lat="46.171456966549158" lon="8.316314360126853">
        <time>2003-04-26T09:31:51Z</time>
      </trkpt>
      <trkpt lat="46.171446237713099" lon="8.316266080364585">
        <time>2003-04-26T09:31:52Z</time>
      </trkpt>
      <trkpt lat="46.171406004577875" lon="8.316000541672111">
        <time>2003-04-26T09:31:57Z</time>
      </trkpt>
      <trkpt lat="46.171376165002584" lon="8.315718825906515">
        <time>2003-04-26T09:32:00Z</time>
      </trkpt>
      <trkpt lat="46.171330567449331" lon="8.31535940989852">
        <time>2003-04-26T09:32:08Z</time>
      </trkpt>
      <trkpt lat="46.171979662030935" lon="8.315804656594992">
        <time>2003-04-26T09:33:33Z</time>
      </trkpt>
      <trkpt lat="46.171706076711416" lon="8.315643724054098">
        <time>2003-04-26T09:33:35Z</time>
      </trkpt>
      <trkpt lat="46.171698030084372" lon="8.315638359636068">
        <time>2003-04-26T09:33:36Z</time>
      </trkpt>
      <trkpt lat="46.171507593244314" lon="8.315405007451773">
        <time>2003-04-26T09:33:51Z</time>
      </trkpt>
      <trkpt lat="46.171486135572195" lon="8.315429147332907">
        <time>2003-04-26T09:33:52Z</time>
      </trkpt>
      <trkpt lat="46.170566137880087" lon="8.315801974385977">
        <time>2003-04-26T09:36:34Z</time>
      </trkpt>
      <trkpt lat="46.169884856790304" lon="8.317636605352163">
        <time>2003-04-26T09:36:58Z</time>
      </trkpt>
      <trkpt lat="46.16987144574523" lon="8.317658063024283">
        <time>2003-04-26T09:36:59Z</time>
      </trkpt>
      <trkpt lat="46.171451266855001" lon="8.3154640160501">
        <time>2003-04-26T09:37:03Z</time>
      </trkpt>
      <trkpt lat="46.171668525785208" lon="8.315163608640432">
        <time>2003-04-26T09:37:04Z</time>
      </trkpt>
      <trkpt lat="46.171797271817923" lon="8.314983900636435">
        <time>2003-04-26T09:37:17Z</time>
      </trkpt>
      <trkpt lat="46.171596106141806" lon="8.315362092107534">
        <time>2003-04-26T09:37:25Z</time>
      </trkpt>
      <trkpt lat="46.171846557408571" lon="8.315017679706216">
        <time>2003-04-26T09:37:26Z</time>
      </trkpt>
      <trkpt lat="46.173530984669924" lon="8.312694886699319">
        <time>2003-04-26T09:37:33Z</time>
      </trkpt>
      <trkpt lat="46.173522938042879" lon="8.312713662162423">
        <time>2003-04-26T09:37:34Z</time>
      </trkpt>
      <trkpt lat="46.17349611595273" lon="8.312759259715676">
        <time>2003-04-26T09:37:36Z</time>
      </trkpt>
      <trkpt lat="46.173488069325686" lon="8.31278339959681">
        <time>2003-04-26T09:37:37Z</time>
      </trkpt>
      <trkpt lat="46.173463929444551" lon="8.312818268314004">
        <time>2003-04-26T09:37:38Z</time>
      </trkpt>
      <trkpt lat="46.173445153981447" lon="8.312850454822183">
        <time>2003-04-26T09:37:39Z</time>
      </trkpt>
      <trkpt lat="46.173270810395479" lon="8.313094535842538">
        <time>2003-04-26T09:37:42Z</time>
      </trkpt>
      <trkpt lat="46.173201072961092" lon="8.313185730949044">
        <time>2003-04-26T09:37:43Z</time>
      </trkpt>
      <trkpt lat="46.173018682748079" lon="8.31341908313334">
        <time>2003-04-26T09:37:49Z</time>
      </trkpt>
      <trkpt lat="46.170883644372225" lon="8.314797738566995">
        <time>2003-04-26T09:40:45Z</time>
      </trkpt>
      <trkpt lat="46.170859504491091" lon="8.314787009730935">
        <time>2003-04-26T09:40:46Z</time>
      </trkpt>
      <trkpt lat="46.170800495892763" lon="8.314733365550637">
        <time>2003-04-26T09:40:49Z</time>
      </trkpt>
      <trkpt lat="46.170435715466738" lon="8.314317623153329">
        <time>2003-04-26T09:41:10Z</time>
      </trkpt>
      <trkpt lat="46.169897513464093" lon="8.313659643754363">
        <time>2003-04-26T09:41:35Z</time>
      </trkpt>
      <trkpt lat="46.169285969808698" lon="8.312970316037536">
        <time>2003-04-26T09:41:57Z</time>
      </trkpt>
      <trkpt lat="46.168693201616406" lon="8.312337314710021">
        <time>2003-04-26T09:42:19Z</time>
      </trkpt>
      <trkpt lat="46.168320374563336" lon="8.312034225091338">
        <time>2003-04-26T09:42:37Z</time>
      </trkpt>
      <trkpt lat="46.168272094801068" lon="8.312015449628234">
        <time>2003-04-26T09:42:43Z</time>
      </trkpt>
      <trkpt lat="46.168250637128949" lon="8.312004720792174">
        <time>2003-04-26T09:42:44Z</time>
      </trkpt>
      <trkpt lat="46.167896585538983" lon="8.311808919534087">
        <time>2003-04-26T09:42:56Z</time>
      </trkpt>
      <trkpt lat="46.167580084875226" lon="8.311776733025909">
        <time>2003-04-26T09:43:03Z</time>
      </trkpt>
      <trkpt lat="46.167507665231824" lon="8.311878656968474">
        <time>2003-04-26T09:43:05Z</time>
      </trkpt>
      <trkpt lat="46.167502300813794" lon="8.311959123238921">
        <time>2003-04-26T09:43:06Z</time>
      </trkpt>
      <trkpt lat="46.167504983022809" lon="8.31212273798883">
        <time>2003-04-26T09:43:08Z</time>
      </trkpt>
      <trkpt lat="46.167467432096601" lon="8.312471425160766">
        <time>2003-04-26T09:43:13Z</time>
      </trkpt>
      <trkpt lat="46.167451338842511" lon="8.312517022714019">
        <time>2003-04-26T09:43:14Z</time>
      </trkpt>
      <trkpt lat="46.167365508154035" lon="8.312664544209838">
        <time>2003-04-26T09:43:18Z</time>
      </trkpt>
      <trkpt lat="46.167300883680582" lon="8.312724558636546">
        <time>2003-04-26T09:43:20Z</time>
      </trkpt>
      <trkpt lat="46.167011205106974" lon="8.313215402886272">
        <time>2003-04-26T09:43:30Z</time>
      </trkpt>
      <trkpt lat="46.16698170080781" lon="8.313274411484599">
        <time>2003-04-26T09:43:31Z</time>
      </trkpt>
      <trkpt lat="46.166852954775095" lon="8.313480941578746">
        <time>2003-04-26T09:43:35Z</time>
      </trkpt>
      <trkpt lat="46.166737619787455" lon="8.313556043431163">
        <time>2003-04-26T09:43:38Z</time>
      </trkpt>
      <trkpt lat="46.166700068861246" lon="8.313553361222148">
        <time>2003-04-26T09:43:39Z</time>
      </trkpt>
      <trkpt lat="46.16660350933671" lon="8.31351044587791">
        <time>2003-04-26T09:43:42Z</time>
      </trkpt>
      <trkpt lat="46.166024152189493" lon="8.313083974644542">
        <time>2003-04-26T09:44:02Z</time>
      </trkpt>
      <trkpt lat="46.165291909128428" lon="8.312821118161082">
        <time>2003-04-26T09:44:25Z</time>
      </trkpt>
      <trkpt lat="46.164556983858347" lon="8.312858669087291">
        <time>2003-04-26T09:44:47Z</time>
      </trkpt>
      <trkpt lat="46.163505557924509" lon="8.31301155500114">
        <time>2003-04-26T09:45:14Z</time>
      </trkpt>
      <trkpt lat="46.162548009306192" lon="8.313309280201793">
        <time>2003-04-26T09:45:35Z</time>
      </trkpt>
      <trkpt lat="46.161826495081186" lon="8.313534585759044">
        <time>2003-04-26T09:45:50Z</time>
      </trkpt>
      <trkpt lat="46.160952094942331" lon="8.313810853287578">
        <time>2003-04-26T09:46:09Z</time>
      </trkpt>
      <trkpt lat="46.160250278189778" lon="8.314039008691907">
        <time>2003-04-26T09:46:23Z</time>
      </trkpt>
      <trkpt lat="46.159424157813191" lon="8.314307229593396">
        <time>2003-04-26T09:46:39Z</time>
      </trkpt>
      <trkpt lat="46.158426376059651" lon="8.314626412466168">
        <time>2003-04-26T09:46:59Z</time>
      </trkpt>
      <trkpt lat="46.157428594306111" lon="8.314937548711896">
        <time>2003-04-26T09:47:19Z</time>
      </trkpt>
      <trkpt lat="46.156814368441701" lon="8.315168218687177">
        <time>2003-04-26T09:47:32Z</time>
      </trkpt>
      <trkpt lat="46.156771453097463" lon="8.31520308740437">
        <time>2003-04-26T09:47:33Z</time>
      </trkpt>
      <trkpt lat="46.156259151175618" lon="8.3157127071172">
        <time>2003-04-26T09:47:46Z</time>
      </trkpt>
      <trkpt lat="46.15572270937264" lon="8.316289382055402">
        <time>2003-04-26T09:48:00Z</time>
      </trkpt>
      <trkpt lat="46.155569823458791" lon="8.316348390653729">
        <time>2003-04-26T09:48:04Z</time>
      </trkpt>
      <trkpt lat="46.155449124053121" lon="8.316230373457074">
        <time>2003-04-26T09:48:08Z</time>
      </trkpt>
      <trkpt lat="46.15482953377068" lon="8.315377430990338">
        <time>2003-04-26T09:48:30Z</time>
      </trkpt>
      <trkpt lat="46.154510350897908" lon="8.31497241742909">
        <time>2003-04-26T09:48:43Z</time>
      </trkpt>
      <trkpt lat="46.154419155791402" lon="8.315060930326581">
        <time>2003-04-26T09:48:51Z</time>
      </trkpt>
      <trkpt lat="46.154014142230153" lon="8.315629558637738">
        <time>2003-04-26T09:49:18Z</time>
      </trkpt>
      <trkpt lat="46.153403939679265" lon="8.316389042884111">
        <time>2003-04-26T09:49:46Z</time>
      </trkpt>
      <trkpt lat="46.152835311368108" lon="8.316670674830675">
        <time>2003-04-26T09:50:04Z</time>
      </trkpt>
      <trkpt lat="46.152180852368474" lon="8.316777963191271">
        <time>2003-04-26T09:50:22Z</time>
      </trkpt>
      <trkpt lat="46.152108432725072" lon="8.31692012026906">
        <time>2003-04-26T09:50:26Z</time>
      </trkpt>
      <trkpt lat="46.152057470753789" lon="8.317064959555864">
        <time>2003-04-26T09:50:30Z</time>
      </trkpt>
      <trkpt lat="46.15203064866364" lon="8.317067641764879">
        <time>2003-04-26T09:50:31Z</time>
      </trkpt>
      <trkpt lat="46.152001144364476" lon="8.317059595137835">
        <time>2003-04-26T09:50:33Z</time>
      </trkpt>
      <trkpt lat="46.151966275647283" lon="8.317062277346849">
        <time>2003-04-26T09:50:35Z</time>
      </trkpt>
      <trkpt lat="46.151630999520421" lon="8.317346591502428">
        <time>2003-04-26T09:50:55Z</time>
      </trkpt>
      <trkpt lat="46.151370825245976" lon="8.317866940051317">
        <time>2003-04-26T09:51:14Z</time>
      </trkpt>
      <trkpt lat="46.151207210496068" lon="8.318717200309038">
        <time>2003-04-26T09:51:35Z</time>
      </trkpt>
      <trkpt lat="46.150981904938817" lon="8.318963963538408">
        <time>2003-04-26T09:51:44Z</time>
      </trkpt>
      <trkpt lat="46.150957765057683" lon="8.318977374583483">
        <time>2003-04-26T09:51:45Z</time>
      </trkpt>
      <trkpt lat="46.150542022660375" lon="8.319406528025866">
        <time>2003-04-26T09:52:04Z</time>
      </trkpt>
      <trkpt lat="46.150072384625673" lon="8.319750772789121">
        <time>2003-04-26T09:52:24Z</time>
      </trkpt>
      <trkpt lat="46.149627137929201" lon="8.319943891838193">
        <time>2003-04-26T09:53:27Z</time>
      </trkpt>
      <trkpt lat="46.149602998048067" lon="8.319981442764401">
        <time>2003-04-26T09:53:29Z</time>
      </trkpt>
      <trkpt lat="46.149316001683474" lon="8.32051788456738">
        <time>2003-04-26T09:53:45Z</time>
      </trkpt>
      <trkpt lat="46.149214077740908" lon="8.321352051571012">
        <time>2003-04-26T09:54:03Z</time>
      </trkpt>
      <trkpt lat="46.149434018880129" lon="8.322497354820371">
        <time>2003-04-26T09:54:25Z</time>
      </trkpt>
      <trkpt lat="46.149436701089144" lon="8.323044525459409">
        <time>2003-04-26T09:54:36Z</time>
      </trkpt>
      <trkpt lat="46.149310637265444" lon="8.323178635910153">
        <time>2003-04-26T09:54:41Z</time>
      </trkpt>
      <trkpt lat="46.148489881306887" lon="8.323749946430326">
        <time>2003-04-26T09:55:04Z</time>
      </trkpt>
      <trkpt lat="46.148052681237459" lon="8.324012802913785">
        <time>2003-04-26T09:55:15Z</time>
      </trkpt>
      <trkpt lat="46.147781778126955" lon="8.323929654434323">
        <time>2003-04-26T09:55:20Z</time>
      </trkpt>
      <trkpt lat="46.146950293332338" lon="8.323366390541196">
        <time>2003-04-26T09:55:33Z</time>
      </trkpt>
      <trkpt lat="46.14691274240613" lon="8.323323475196958">
        <time>2003-04-26T09:55:34Z</time>
      </trkpt>
      <trkpt lat="46.146856416016817" lon="8.323245691135526">
        <time>2003-04-26T09:55:36Z</time>
      </trkpt>
      <trkpt lat="46.146837472915649" lon="8.323204033076763">
        <time>2003-04-26T09:55:37Z</time>
      </trkpt>
      <trkpt lat="46.146856248378754" lon="8.32303773611784">
        <time>2003-04-26T09:56:27Z</time>
      </trkpt>
      <trkpt lat="46.146850883960724" lon="8.323000185191631">
        <time>2003-04-26T09:56:28Z</time>
      </trkpt>
      <trkpt lat="46.146765053272247" lon="8.322313539683819">
        <time>2003-04-26T09:56:44Z</time>
      </trkpt>
      <trkpt lat="46.146416366100311" lon="8.321296982467175">
        <time>2003-04-26T09:57:05Z</time>
      </trkpt>
      <trkpt lat="46.14608108997345" lon="8.320535235106945">
        <time>2003-04-26T09:57:21Z</time>
      </trkpt>
      <trkpt lat="46.14607036113739" lon="8.320481590926647">
        <time>2003-04-26T09:57:22Z</time>
      </trkpt>
      <trkpt lat="46.145820915699005" lon="8.319762758910656">
        <time>2003-04-26T09:57:36Z</time>
      </trkpt>
      <trkpt lat="46.145407855510712" lon="8.318700604140759">
        <time>2003-04-26T09:57:59Z</time>
      </trkpt>
      <trkpt lat="46.145102083683014" lon="8.317716233432293">
        <time>2003-04-26T09:58:20Z</time>
      </trkpt>
      <trkpt lat="46.144906282424927" lon="8.317351453006268">
        <time>2003-04-26T09:58:29Z</time>
      </trkpt>
      <trkpt lat="46.144804358482361" lon="8.317311219871044">
        <time>2003-04-26T09:58:31Z</time>
      </trkpt>
      <trkpt lat="46.144182085990906" lon="8.31691425293684">
        <time>2003-04-26T09:58:46Z</time>
      </trkpt>
      <trkpt lat="46.143849492073059" lon="8.316629938781261">
        <time>2003-04-26T09:58:55Z</time>
      </trkpt>
      <trkpt lat="46.143739856779575" lon="8.316590460017324">
        <time>2003-04-26T09:58:57Z</time>
      </trkpt>
      <trkpt lat="46.143493093550205" lon="8.316475125029683">
        <time>2003-04-26T09:59:03Z</time>
      </trkpt>
      <trkpt lat="46.143412627279758" lon="8.316491218283773">
        <time>2003-04-26T09:59:05Z</time>
      </trkpt>
      <trkpt lat="46.143367029726505" lon="8.316496582701802">
        <time>2003-04-26T09:59:06Z</time>
      </trkpt>
      <trkpt lat="46.143176592886448" lon="8.316421480849385">
        <time>2003-04-26T09:59:10Z</time>
      </trkpt>
      <trkpt lat="46.143139041960239" lon="8.316394658759236">
        <time>2003-04-26T09:59:11Z</time>
      </trkpt>
      <trkpt lat="46.143098808825016" lon="8.316354425624013">
        <time>2003-04-26T09:59:12Z</time>
      </trkpt>
      <trkpt lat="46.142833270132542" lon="8.316145213320851">
        <time>2003-04-26T09:59:18Z</time>
      </trkpt>
      <trkpt lat="46.142771579325199" lon="8.316054018214345">
        <time>2003-04-26T09:59:20Z</time>
      </trkpt>
      <trkpt lat="46.142575778067112" lon="8.315657051280141">
        <time>2003-04-26T09:59:28Z</time>
      </trkpt>
      <trkpt lat="46.142530180513859" lon="8.315565856173635">
        <time>2003-04-26T09:59:30Z</time>
      </trkpt>
      <trkpt lat="46.14250872284174" lon="8.315539034083486">
        <time>2003-04-26T09:59:31Z</time>
      </trkpt>
      <trkpt lat="46.142479218542576" lon="8.315501483157277">
        <time>2003-04-26T09:59:32Z</time>
      </trkpt>
      <trkpt lat="46.142302192747593" lon="8.315260084345937">
        <time>2003-04-26T09:59:38Z</time>
      </trkpt>
      <trkpt lat="46.142079401761293" lon="8.315156903117895">
        <time>2003-04-26T09:59:43Z</time>
      </trkpt>
      <trkpt lat="46.142036486417055" lon="8.315130081027746">
        <time>2003-04-26T09:59:44Z</time>
      </trkpt>
      <trkpt lat="46.141996253281832" lon="8.315097894519568">
        <time>2003-04-26T09:59:45Z</time>
      </trkpt>
      <trkpt lat="46.141929198056459" lon="8.315006699413061">
        <time>2003-04-26T09:59:47Z</time>
      </trkpt>
      <trkpt lat="46.141435671597719" lon="8.314464893192053">
        <time>2003-04-26T10:00:01Z</time>
      </trkpt>
      <trkpt lat="46.141247916966677" lon="8.314244952052832">
        <time>2003-04-26T10:00:07Z</time>
      </trkpt>
      <trkpt lat="46.141164768487215" lon="8.314196672290564">
        <time>2003-04-26T10:00:09Z</time>
      </trkpt>
      <trkpt lat="46.141089666634798" lon="8.314121570438147">
        <time>2003-04-26T10:00:11Z</time>
      </trkpt>
      <trkpt lat="46.140987742692232" lon="8.313915040344">
        <time>2003-04-26T10:00:15Z</time>
      </trkpt>
      <trkpt lat="46.140934098511934" lon="8.313791658729315">
        <time>2003-04-26T10:00:17Z</time>
      </trkpt>
      <trkpt lat="46.140834856778383" lon="8.313544895499945">
        <time>2003-04-26T10:00:21Z</time>
      </trkpt>
      <trkpt lat="46.140762437134981" lon="8.313464429229498">
        <time>2003-04-26T10:00:23Z</time>
      </trkpt>
      <trkpt lat="46.140268910676241" lon="8.312992360442877">
        <time>2003-04-26T10:00:37Z</time>
      </trkpt>
      <trkpt lat="46.139955092221498" lon="8.312721457332373">
        <time>2003-04-26T10:00:45Z</time>
      </trkpt>
      <trkpt lat="46.139912512153387" lon="8.312693126499653">
        <time>2003-04-26T10:00:46Z</time>
      </trkpt>
      <trkpt lat="46.1393385194242" lon="8.31239003688097">
        <time>2003-04-26T10:01:00Z</time>
      </trkpt>
      <trkpt lat="46.13885035738349" lon="8.312164731323719">
        <time>2003-04-26T10:01:11Z</time>
      </trkpt>
      <trkpt lat="46.138807442039251" lon="8.312151320278645">
        <time>2003-04-26T10:01:12Z</time>
      </trkpt>
      <trkpt lat="46.13808861002326" lon="8.311909921467304">
        <time>2003-04-26T10:01:28Z</time>
      </trkpt>
      <trkpt lat="46.138040330260992" lon="8.311888463795185">
        <time>2003-04-26T10:01:29Z</time>
      </trkpt>
      <trkpt lat="46.137410011142492" lon="8.311700709164143">
        <time>2003-04-26T10:01:43Z</time>
      </trkpt>
      <trkpt lat="46.13684406504035" lon="8.311657793819904">
        <time>2003-04-26T10:01:54Z</time>
      </trkpt>
      <trkpt lat="46.136111821979284" lon="8.311663158237934">
        <time>2003-04-26T10:02:09Z</time>
      </trkpt>
      <trkpt lat="46.135449316352606" lon="8.311577327549458">
        <time>2003-04-26T10:02:23Z</time>
      </trkpt>
      <trkpt lat="46.135403718799353" lon="8.311566598713398">
        <time>2003-04-26T10:02:24Z</time>
      </trkpt>
      <trkpt lat="46.134652700275183" lon="8.311456628143787">
        <time>2003-04-26T10:02:41Z</time>
      </trkpt>
      <trkpt lat="46.133893635123968" lon="8.311781175434589">
        <time>2003-04-26T10:03:00Z</time>
      </trkpt>
      <trkpt lat="46.133877541869879" lon="8.311837501823902">
        <time>2003-04-26T10:03:01Z</time>
      </trkpt>
      <trkpt lat="46.133858766406775" lon="8.311891984194517">
        <time>2003-04-26T10:03:02Z</time>
      </trkpt>
      <trkpt lat="46.133799757808447" lon="8.312125336378813">
        <time>2003-04-26T10:03:06Z</time>
      </trkpt>
      <trkpt lat="46.133772935718298" lon="8.312288951128721">
        <time>2003-04-26T10:03:09Z</time>
      </trkpt>
      <trkpt lat="46.13371392711997" lon="8.313600551337004">
        <time>2003-04-26T10:03:32Z</time>
      </trkpt>
      <trkpt lat="46.133751478046179" lon="8.313836585730314">
        <time>2003-04-26T10:03:36Z</time>
      </trkpt>
      <trkpt lat="46.133762206882238" lon="8.313914369791746">
        <time>2003-04-26T10:03:37Z</time>
      </trkpt>
      <trkpt lat="46.133778300136328" lon="8.313984107226133">
        <time>2003-04-26T10:03:38Z</time>
      </trkpt>
      <trkpt lat="46.133783664554358" lon="8.314204048365355">
        <time>2003-04-26T10:03:41Z</time>
      </trkpt>
      <trkpt lat="46.133805122226477" lon="8.315510284155607">
        <time>2003-04-26T10:04:02Z</time>
      </trkpt>
      <trkpt lat="46.13383462652564" lon="8.317548763006926">
        <time>2003-04-26T10:04:36Z</time>
      </trkpt>
      <trkpt lat="46.133880224078894" lon="8.320255111902952">
        <time>2003-04-26T10:05:22Z</time>
      </trkpt>
      <trkpt lat="46.133909728378057" lon="8.322545718401671">
        <time>2003-04-26T10:05:59Z</time>
      </trkpt>
      <trkpt lat="46.134151127189398" lon="8.324640523642302">
        <time>2003-04-26T10:06:33Z</time>
      </trkpt>
      <trkpt lat="46.13434424623847" lon="8.325844835489988">
        <time>2003-04-26T10:06:55Z</time>
      </trkpt>
      <trkpt lat="46.134354723617435" lon="8.325921781361103">
        <time>2003-04-26T10:06:57Z</time>
      </trkpt>
      <trkpt lat="46.134354723617435" lon="8.325940556824207">
        <time>2003-04-26T10:06:58Z</time>
      </trkpt>
      <trkpt lat="46.13434667699039" lon="8.325970061123371">
        <time>2003-04-26T10:06:59Z</time>
      </trkpt>
      <trkpt lat="46.134360088035464" lon="8.325999565422535">
        <time>2003-04-26T10:07:01Z</time>
      </trkpt>
      <trkpt lat="46.13434667699039" lon="8.326004929840565">
        <time>2003-04-26T10:07:02Z</time>
      </trkpt>
      <trkpt lat="46.134201837703586" lon="8.32599688321352">
        <time>2003-04-26T10:07:09Z</time>
      </trkpt>
      <trkpt lat="46.134062362834811" lon="8.325948603451252">
        <time>2003-04-26T10:07:16Z</time>
      </trkpt>
      <trkpt lat="46.134043587371707" lon="8.325945921242237">
        <time>2003-04-26T10:07:17Z</time>
      </trkpt>
      <trkpt lat="46.134016765281558" lon="8.325943239033222">
        <time>2003-04-26T10:07:18Z</time>
      </trkpt>
      <trkpt lat="46.134000672027469" lon="8.325940556824207">
        <time>2003-04-26T10:07:19Z</time>
      </trkpt>
      <trkpt lat="46.133912159129977" lon="8.325900323688984">
        <time>2003-04-26T10:07:31Z</time>
      </trkpt>
      <trkpt lat="46.133812917396426" lon="8.325857408344746">
        <time>2003-04-26T10:08:00Z</time>
      </trkpt>
      <trkpt lat="46.13333816640079" lon="8.325809128582478">
        <time>2003-04-26T10:08:17Z</time>
      </trkpt>
      <trkpt lat="46.13320673815906" lon="8.325784988701344">
        <time>2003-04-26T10:08:25Z</time>
      </trkpt>
      <trkpt lat="46.133161811158061" lon="8.325767554342747">
        <time>2003-04-26T10:08:26Z</time>
      </trkpt>
      <trkpt lat="46.133129624649882" lon="8.325743414461613">
        <time>2003-04-26T10:08:27Z</time>
      </trkpt>
      <trkpt lat="46.13294187001884" lon="8.325665630400181">
        <time>2003-04-26T10:09:05Z</time>
      </trkpt>
      <trkpt lat="46.132907001301646" lon="8.325579799711704">
        <time>2003-04-26T10:09:08Z</time>
      </trkpt>
      <trkpt lat="46.13282117061317" lon="8.324713446199894">
        <time>2003-04-26T10:09:23Z</time>
      </trkpt>
      <trkpt lat="46.132641462609172" lon="8.323420621454716">
        <time>2003-04-26T10:09:43Z</time>
      </trkpt>
      <trkpt lat="46.132515398785472" lon="8.322589136660099">
        <time>2003-04-26T10:09:56Z</time>
      </trkpt>
      <trkpt lat="46.132510034367442" lon="8.322519399225712">
        <time>2003-04-26T10:09:57Z</time>
      </trkpt>
      <trkpt lat="46.132501987740397" lon="8.322449661791325">
        <time>2003-04-26T10:09:58Z</time>
      </trkpt>
      <trkpt lat="46.132488576695323" lon="8.322379924356937">
        <time>2003-04-26T10:09:59Z</time>
      </trkpt>
      <trkpt lat="46.132244495674968" lon="8.321502842009068">
        <time>2003-04-26T10:10:13Z</time>
      </trkpt>
      <trkpt lat="46.131860939785838" lon="8.320797421038151">
        <time>2003-04-26T10:10:27Z</time>
      </trkpt>
      <trkpt lat="46.13182338885963" lon="8.320749141275883">
        <time>2003-04-26T10:10:28Z</time>
      </trkpt>
      <trkpt lat="46.131244031712413" lon="8.320210017263889">
        <time>2003-04-26T10:10:42Z</time>
      </trkpt>
      <trkpt lat="46.13102987408638" lon="8.320011701434851">
        <time>2003-04-26T10:10:52Z</time>
      </trkpt>
      <trkpt lat="46.131032556295395" lon="8.319960739463568">
        <time>2003-04-26T10:11:23Z</time>
      </trkpt>
      <trkpt lat="46.131059378385544" lon="8.319891002029181">
        <time>2003-04-26T10:11:25Z</time>
      </trkpt>
      <trkpt lat="46.131107658147812" lon="8.319799806922674">
        <time>2003-04-26T10:11:27Z</time>
      </trkpt>
      <trkpt lat="46.131196171045303" lon="8.319700565189123">
        <time>2003-04-26T10:11:30Z</time>
      </trkpt>
      <trkpt lat="46.131638735532761" lon="8.319113161414862">
        <time>2003-04-26T10:11:46Z</time>
      </trkpt>
      <trkpt lat="46.131974011659622" lon="8.318421151489019">
        <time>2003-04-26T10:12:04Z</time>
      </trkpt>
      <trkpt lat="46.131898909807205" lon="8.318351414054632">
        <time>2003-04-26T10:12:07Z</time>
      </trkpt>
      <trkpt lat="46.131319552659988" lon="8.318182434886694">
        <time>2003-04-26T10:12:23Z</time>
      </trkpt>
      <trkpt lat="46.131249815225601" lon="8.318155612796545">
        <time>2003-04-26T10:12:25Z</time>
      </trkpt>
      <trkpt lat="46.131244450807571" lon="8.317924942821264">
        <time>2003-04-26T10:12:32Z</time>
      </trkpt>
      <trkpt lat="46.13139733672142" lon="8.317627217620611">
        <time>2003-04-26T10:12:41Z</time>
      </trkpt>
      <trkpt lat="46.13141342997551" lon="8.317597713321447">
        <time>2003-04-26T10:12:42Z</time>
      </trkpt>
      <trkpt lat="46.131593137979507" lon="8.317168559879065">
        <time>2003-04-26T10:12:54Z</time>
      </trkpt>
      <trkpt lat="46.131671089679003" lon="8.317037802189589">
        <time>2003-04-26T10:12:57Z</time>
      </trkpt>
      <trkpt lat="46.131732780486345" lon="8.316911738365889">
        <time>2003-04-26T10:13:00Z</time>
      </trkpt>
      <trkpt lat="46.131754238158464" lon="8.316659610718489">
        <time>2003-04-26T10:13:04Z</time>
      </trkpt>
      <trkpt lat="46.131805200129747" lon="8.316080253571272">
        <time>2003-04-26T10:13:13Z</time>
      </trkpt>
      <trkpt lat="46.131858844310045" lon="8.315753024071455">
        <time>2003-04-26T10:13:18Z</time>
      </trkpt>
      <trkpt lat="46.131850797683001" lon="8.315608184784651">
        <time>2003-04-26T10:13:20Z</time>
      </trkpt>
      <trkpt lat="46.131829340010881" lon="8.31549821421504">
        <time>2003-04-26T10:13:22Z</time>
      </trkpt>
      <trkpt lat="46.13161476328969" lon="8.314704280346632">
        <time>2003-04-26T10:13:38Z</time>
      </trkpt>
      <trkpt lat="46.131410915404558" lon="8.314237575978041">
        <time>2003-04-26T10:13:47Z</time>
      </trkpt>
      <trkpt lat="46.131394822150469" lon="8.3141222409904">
        <time>2003-04-26T10:13:49Z</time>
      </trkpt>
      <trkpt lat="46.131402868777514" lon="8.313462417572737">
        <time>2003-04-26T10:14:00Z</time>
      </trkpt>
      <trkpt lat="46.131397504359484" lon="8.312754314392805">
        <time>2003-04-26T10:14:12Z</time>
      </trkpt>
      <trkpt lat="46.131308991461992" lon="8.312547784298658">
        <time>2003-04-26T10:14:16Z</time>
      </trkpt>
      <trkpt lat="46.131169516593218" lon="8.312094490975142">
        <time>2003-04-26T10:14:24Z</time>
      </trkpt>
      <trkpt lat="46.131162559613585" lon="8.312038583680987">
        <time>2003-04-26T10:14:25Z</time>
      </trkpt>
      <trkpt lat="46.131125008687377" lon="8.311378760263324">
        <time>2003-04-26T10:14:37Z</time>
      </trkpt>
      <trkpt lat="46.131272530183196" lon="8.310895962640643">
        <time>2003-04-26T10:14:48Z</time>
      </trkpt>
      <trkpt lat="46.13130203448236" lon="8.310869140550494">
        <time>2003-04-26T10:14:49Z</time>
      </trkpt>
      <trkpt lat="46.131379818543792" lon="8.310767216607928">
        <time>2003-04-26T10:14:52Z</time>
      </trkpt>
      <trkpt lat="46.131385182961822" lon="8.310413165017963">
        <time>2003-04-26T10:14:59Z</time>
      </trkpt>
      <trkpt lat="46.131047224625945" lon="8.309098882600665">
        <time>2003-04-26T10:15:25Z</time>
      </trkpt>
      <trkpt lat="46.130795096978545" lon="8.308659000322223">
        <time>2003-04-26T10:15:35Z</time>
      </trkpt>
      <trkpt lat="46.130770957097411" lon="8.308640224859119">
        <time>2003-04-26T10:15:36Z</time>
      </trkpt>
      <trkpt lat="46.130744135007262" lon="8.308621449396014">
        <time>2003-04-26T10:15:37Z</time>
      </trkpt>
      <trkpt lat="46.130698537454009" lon="8.308511478826404">
        <time>2003-04-26T10:15:41Z</time>
      </trkpt>
      <trkpt lat="46.130854105576873" lon="8.308347864076495">
        <time>2003-04-26T10:15:45Z</time>
      </trkpt>
      <trkpt lat="46.130864834412932" lon="8.308331770822406">
        <time>2003-04-26T10:15:46Z</time>
      </trkpt>
      <trkpt lat="46.130945300683379" lon="8.308272762224078">
        <time>2003-04-26T10:15:48Z</time>
      </trkpt>
      <trkpt lat="46.130956280976534" lon="8.30825918354094">
        <time>2003-04-26T10:15:49Z</time>
      </trkpt>
      <trkpt lat="46.131302285939455" lon="8.307915860787034">
        <time>2003-04-26T10:16:29Z</time>
      </trkpt>
      <trkpt lat="46.131020653992891" lon="8.308267230167985">
        <time>2003-04-26T10:18:37Z</time>
      </trkpt>
      <trkpt lat="46.13092677667737" lon="8.308189446106553">
        <time>2003-04-26T10:18:40Z</time>
      </trkpt>
      <trkpt lat="46.130854357033968" lon="8.308135801926255">
        <time>2003-04-26T10:18:42Z</time>
      </trkpt>
      <trkpt lat="46.130816806107759" lon="8.308114344254136">
        <time>2003-04-26T10:18:43Z</time>
      </trkpt>
      <trkpt lat="46.130033601075411" lon="8.307502800598741">
        <time>2003-04-26T10:19:02Z</time>
      </trkpt>
      <trkpt lat="46.128982175141573" lon="8.306960994377732">
        <time>2003-04-26T10:19:25Z</time>
      </trkpt>
      <trkpt lat="46.128070224076509" lon="8.306480878964067">
        <time>2003-04-26T10:19:44Z</time>
      </trkpt>
      <trkpt lat="46.127147544175386" lon="8.305990034714341">
        <time>2003-04-26T10:20:03Z</time>
      </trkpt>
      <trkpt lat="46.1261953599751" lon="8.305469686165452">
        <time>2003-04-26T10:20:22Z</time>
      </trkpt>
      <trkpt lat="46.125388015061617" lon="8.30502980388701">
        <time>2003-04-26T10:20:39Z</time>
      </trkpt>
      <trkpt lat="46.124556530267" lon="8.304648930206895">
        <time>2003-04-26T10:20:56Z</time>
      </trkpt>
      <trkpt lat="46.123641896992922" lon="8.304431671276689">
        <time>2003-04-26T10:21:13Z</time>
      </trkpt>
      <trkpt lat="46.122594159096479" lon="8.304366627708077">
        <time>2003-04-26T10:21:33Z</time>
      </trkpt>
      <trkpt lat="46.121676843613386" lon="8.304500738158822">
        <time>2003-04-26T10:21:51Z</time>
      </trkpt>
      <trkpt lat="46.121078711003065" lon="8.304691174998879">
        <time>2003-04-26T10:22:03Z</time>
      </trkpt>
      <trkpt lat="46.121030431240797" lon="8.304701903834939">
        <time>2003-04-26T10:22:04Z</time>
      </trkpt>
      <trkpt lat="46.120979469269514" lon="8.304715314880014">
        <time>2003-04-26T10:22:05Z</time>
      </trkpt>
      <trkpt lat="46.120853405445814" lon="8.304782370105386">
        <time>2003-04-26T10:22:08Z</time>
      </trkpt>
      <trkpt lat="46.120684426277876" lon="8.304970124736428">
        <time>2003-04-26T10:22:10Z</time>
      </trkpt>
      <trkpt lat="46.120676379650831" lon="8.305055955424905">
        <time>2003-04-26T10:22:12Z</time>
      </trkpt>
      <trkpt lat="46.120625417679548" lon="8.305074730888009">
        <time>2003-04-26T10:22:13Z</time>
      </trkpt>
      <trkpt lat="46.120429616421461" lon="8.305200794711709">
        <time>2003-04-26T10:22:16Z</time>
      </trkpt>
      <trkpt lat="46.120378654450178" lon="8.305227616801858">
        <time>2003-04-26T10:22:17Z</time>
      </trkpt>
      <trkpt lat="46.120357196778059" lon="8.305157879367471">
        <time>2003-04-26T10:22:18Z</time>
      </trkpt>
      <trkpt lat="46.120306234806776" lon="8.305131057277322">
        <time>2003-04-26T10:22:20Z</time>
      </trkpt>
      <trkpt lat="46.120105069130659" lon="8.305243710055947">
        <time>2003-04-26T10:22:24Z</time>
      </trkpt>
      <trkpt lat="46.120033822953701" lon="8.305293833836913">
        <time>2003-04-26T10:22:26Z</time>
      </trkpt>
      <trkpt lat="46.119502745568752" lon="8.305551325902343">
        <time>2003-04-26T10:22:37Z</time>
      </trkpt>
      <trkpt lat="46.118990443646908" lon="8.305859779939055">
        <time>2003-04-26T10:22:48Z</time>
      </trkpt>
      <trkpt lat="46.118960939347744" lon="8.305897330865264">
        <time>2003-04-26T10:22:49Z</time>
      </trkpt>
      <trkpt lat="46.118840239942074" lon="8.306079721078277">
        <time>2003-04-26T10:22:54Z</time>
      </trkpt>
      <trkpt lat="46.118775866925716" lon="8.3061199542135">
        <time>2003-04-26T10:22:55Z</time>
      </trkpt>
      <trkpt lat="46.118590794503689" lon="8.306224560365081">
        <time>2003-04-26T10:22:58Z</time>
      </trkpt>
      <trkpt lat="46.118494234979153" lon="8.306181645020843">
        <time>2003-04-26T10:23:00Z</time>
      </trkpt>
      <trkpt lat="46.118236742913723" lon="8.306141411885619">
        <time>2003-04-26T10:23:10Z</time>
      </trkpt>
      <trkpt lat="46.117984615266323" lon="8.306106543168426">
        <time>2003-04-26T10:23:21Z</time>
      </trkpt>
      <trkpt lat="46.117914877831936" lon="8.30613068304956">
        <time>2003-04-26T10:23:23Z</time>
      </trkpt>
      <trkpt lat="46.117340885102749" lon="8.306390857324004">
        <time>2003-04-26T10:23:34Z</time>
      </trkpt>
      <trkpt lat="46.116391383111477" lon="8.306651031598449">
        <time>2003-04-26T10:23:50Z</time>
      </trkpt>
      <trkpt lat="46.116125844419003" lon="8.306718086823821">
        <time>2003-04-26T10:23:54Z</time>
      </trkpt>
      <trkpt lat="46.115885032340884" lon="8.306922689080238">
        <time>2003-04-26T10:24:01Z</time>
      </trkpt>
      <trkpt lat="46.115817977115512" lon="8.307051435112953">
        <time>2003-04-26T10:24:03Z</time>
      </trkpt>
      <trkpt lat="46.115780426189303" lon="8.307118490338326">
        <time>2003-04-26T10:24:04Z</time>
      </trkpt>
      <trkpt lat="46.115697277709842" lon="8.307233825325966">
        <time>2003-04-26T10:24:06Z</time>
      </trkpt>
      <trkpt lat="46.115654362365603" lon="8.307282105088234">
        <time>2003-04-26T10:24:07Z</time>
      </trkpt>
      <trkpt lat="46.115565849468112" lon="8.307375982403755">
        <time>2003-04-26T10:24:09Z</time>
      </trkpt>
      <trkpt lat="46.115517569705844" lon="8.307397440075874">
        <time>2003-04-26T10:24:10Z</time>
      </trkpt>
      <trkpt lat="46.114887250587344" lon="8.307528868317604">
        <time>2003-04-26T10:24:22Z</time>
      </trkpt>
      <trkpt lat="46.114466143772006" lon="8.307523503899574">
        <time>2003-04-26T10:24:30Z</time>
      </trkpt>
      <trkpt lat="46.114417864009738" lon="8.307507410645485">
        <time>2003-04-26T10:24:31Z</time>
      </trkpt>
      <trkpt lat="46.11436958424747" lon="8.30749936401844">
        <time>2003-04-26T10:24:32Z</time>
      </trkpt>
      <trkpt lat="46.114235473796725" lon="8.307528868317604">
        <time>2003-04-26T10:24:35Z</time>
      </trkpt>
      <trkpt lat="46.114034308120608" lon="8.307657614350319">
        <time>2003-04-26T10:24:40Z</time>
      </trkpt>
      <trkpt lat="46.113975299522281" lon="8.307732716202736">
        <time>2003-04-26T10:24:42Z</time>
      </trkpt>
      <trkpt lat="46.113862982019782" lon="8.30793128348887">
        <time>2003-04-26T10:24:47Z</time>
      </trkpt>
      <trkpt lat="46.113836159929633" lon="8.308011749759316">
        <time>2003-04-26T10:24:49Z</time>
      </trkpt>
      <trkpt lat="46.113844206556678" lon="8.308239737525582">
        <time>2003-04-26T10:24:55Z</time>
      </trkpt>
      <trkpt lat="46.113938083872199" lon="8.308344343677163">
        <time>2003-04-26T10:25:00Z</time>
      </trkpt>
      <trkpt lat="46.113975634798408" lon="8.308347025886178">
        <time>2003-04-26T10:25:01Z</time>
      </trkpt>
      <trkpt lat="46.114050736650825" lon="8.308347025886178">
        <time>2003-04-26T10:25:03Z</time>
      </trkpt>
      <trkpt lat="46.114436974748969" lon="8.308564284816384">
        <time>2003-04-26T10:25:18Z</time>
      </trkpt>
      <trkpt lat="46.114423563703895" lon="8.30866620875895">
        <time>2003-04-26T10:25:21Z</time>
      </trkpt>
      <trkpt lat="46.114200940355659" lon="8.309540608897805">
        <time>2003-04-26T10:25:44Z</time>
      </trkpt>
      <trkpt lat="46.113897850736976" lon="8.309908071532846">
        <time>2003-04-26T10:25:57Z</time>
      </trkpt>
      <trkpt lat="46.11380129121244" lon="8.310009995475411">
        <time>2003-04-26T10:26:00Z</time>
      </trkpt>
      <trkpt lat="46.113766422495246" lon="8.310039499774575">
        <time>2003-04-26T10:26:01Z</time>
      </trkpt>
      <trkpt lat="46.113718142732978" lon="8.310106554999948">
        <time>2003-04-26T10:26:04Z</time>
      </trkpt>
      <trkpt lat="46.113361408933997" lon="8.310192385688424">
        <time>2003-04-26T10:26:21Z</time>
      </trkpt>
      <trkpt lat="46.113335844129324" lon="8.310177130624652">
        <time>2003-04-26T10:26:22Z</time>
      </trkpt>
      <trkpt lat="46.112879868596792" lon="8.309828443452716">
        <time>2003-04-26T10:26:39Z</time>
      </trkpt>
      <trkpt lat="46.112753804773092" lon="8.309965236112475">
        <time>2003-04-26T10:26:44Z</time>
      </trkpt>
      <trkpt lat="46.112185176461935" lon="8.310582144185901">
        <time>2003-04-26T10:27:04Z</time>
      </trkpt>
      <trkpt lat="46.111281272023916" lon="8.311617476865649">
        <time>2003-04-26T10:27:31Z</time>
      </trkpt>
      <trkpt lat="46.110602673143148" lon="8.311840100213885">
        <time>2003-04-26T10:27:47Z</time>
      </trkpt>
      <trkpt lat="46.109870430082083" lon="8.312073452398181">
        <time>2003-04-26T10:28:02Z</time>
      </trkpt>
      <trkpt lat="46.109124775975943" lon="8.312304122373462">
        <time>2003-04-26T10:28:17Z</time>
      </trkpt>
      <trkpt lat="46.1084327660501" lon="8.312534792348743">
        <time>2003-04-26T10:28:28Z</time>
      </trkpt>
      <trkpt lat="46.107384022325277" lon="8.312872750684619">
        <time>2003-04-26T10:28:44Z</time>
      </trkpt>
      <trkpt lat="46.106415744870901" lon="8.313181204721332">
        <time>2003-04-26T10:28:59Z</time>
      </trkpt>
      <trkpt lat="46.105372365564108" lon="8.313521845266223">
        <time>2003-04-26T10:29:15Z</time>
      </trkpt>
      <trkpt lat="46.10432093963027" lon="8.313862485811114">
        <time>2003-04-26T10:29:30Z</time>
      </trkpt>
      <trkpt lat="46.10344922170043" lon="8.314149482175708">
        <time>2003-04-26T10:29:43Z</time>
      </trkpt>
      <trkpt lat="46.102466359734535" lon="8.314457768574357">
        <time>2003-04-26T10:29:57Z</time>
      </trkpt>
      <trkpt lat="46.101605370640755" lon="8.314739400520921">
        <time>2003-04-26T10:30:11Z</time>
      </trkpt>
      <trkpt lat="46.100384965538979" lon="8.315077358856797">
        <time>2003-04-26T10:30:28Z</time>
      </trkpt>
      <trkpt lat="46.100170388817787" lon="8.315029079094529">
        <time>2003-04-26T10:30:31Z</time>
      </trkpt>
      <trkpt lat="46.09998531639576" lon="8.314908379688859">
        <time>2003-04-26T10:30:34Z</time>
      </trkpt>
      <trkpt lat="46.099330857396126" lon="8.314425582066178">
        <time>2003-04-26T10:30:47Z</time>
      </trkpt>
      <trkpt lat="46.098743453621864" lon="8.313832813873887">
        <time>2003-04-26T10:31:00Z</time>
      </trkpt>
      <trkpt lat="46.098713949322701" lon="8.313773805275559">
        <time>2003-04-26T10:31:01Z</time>
      </trkpt>
      <trkpt lat="46.098204329609871" lon="8.312800163403153">
        <time>2003-04-26T10:31:16Z</time>
      </trkpt>
      <trkpt lat="46.098056808114052" lon="8.312456840649247">
        <time>2003-04-26T10:31:21Z</time>
      </trkpt>
      <trkpt lat="46.098019257187843" lon="8.31239783205092">
        <time>2003-04-26T10:31:22Z</time>
      </trkpt>
      <trkpt lat="46.097976341843605" lon="8.312349552288652">
        <time>2003-04-26T10:31:23Z</time>
      </trkpt>
      <trkpt lat="46.097930744290352" lon="8.312303954735398">
        <time>2003-04-26T10:31:24Z</time>
      </trkpt>
      <trkpt lat="46.097788587212563" lon="8.312175208702683">
        <time>2003-04-26T10:31:27Z</time>
      </trkpt>
      <trkpt lat="46.097547020763159" lon="8.312095329165459">
        <time>2003-04-26T10:31:31Z</time>
      </trkpt>
      <trkpt lat="46.096576061099768" lon="8.311808332800865">
        <time>2003-04-26T10:31:45Z</time>
      </trkpt>
      <trkpt lat="46.095739211887121" lon="8.311537429690361">
        <time>2003-04-26T10:31:57Z</time>
      </trkpt>
      <trkpt lat="46.094945278018713" lon="8.311129733920097">
        <time>2003-04-26T10:32:08Z</time>
      </trkpt>
      <trkpt lat="46.093888487666845" lon="8.310327753424645">
        <time>2003-04-26T10:32:24Z</time>
      </trkpt>
      <trkpt lat="46.092925574630499" lon="8.309606239199638">
        <time>2003-04-26T10:32:40Z</time>
      </trkpt>
      <trkpt lat="46.09189024195075" lon="8.30881766974926">
        <time>2003-04-26T10:32:58Z</time>
      </trkpt>
      <trkpt lat="46.090887095779181" lon="8.308058604598045">
        <time>2003-04-26T10:33:16Z</time>
      </trkpt>
      <trkpt lat="46.09039356932044" lon="8.307677730917931">
        <time>2003-04-26T10:33:25Z</time>
      </trkpt>
      <trkpt lat="46.090339925140142" lon="8.307554349303246">
        <time>2003-04-26T10:33:31Z</time>
      </trkpt>
      <trkpt lat="46.090361382812262" lon="8.307476565241814">
        <time>2003-04-26T10:34:08Z</time>
      </trkpt>
      <trkpt lat="46.090364065021276" lon="8.307444378733635">
        <time>2003-04-26T10:34:09Z</time>
      </trkpt>
      <trkpt lat="46.090372111648321" lon="8.307417556643486">
        <time>2003-04-26T10:34:10Z</time>
      </trkpt>
      <trkpt lat="46.090390887111425" lon="8.307334408164024">
        <time>2003-04-26T10:34:13Z</time>
      </trkpt>
      <trkpt lat="46.090401699766517" lon="8.306872481480241">
        <time>2003-04-26T10:34:23Z</time>
      </trkpt>
      <trkpt lat="46.090382924303412" lon="8.306743735447526">
        <time>2003-04-26T10:34:25Z</time>
      </trkpt>
      <trkpt lat="46.090390970930457" lon="8.306207293644548">
        <time>2003-04-26T10:34:36Z</time>
      </trkpt>
      <trkpt lat="46.0902005340904" lon="8.305998081341386">
        <time>2003-04-26T10:34:46Z</time>
      </trkpt>
      <trkpt lat="46.090179076418281" lon="8.305981988087297">
        <time>2003-04-26T10:34:47Z</time>
      </trkpt>
      <trkpt lat="46.08970164321363" lon="8.305547470226884">
        <time>2003-04-26T10:35:04Z</time>
      </trkpt>
      <trkpt lat="46.089492430910468" lon="8.305257791653276">
        <time>2003-04-26T10:35:12Z</time>
      </trkpt>
      <trkpt lat="46.089468291029334" lon="8.305247062817216">
        <time>2003-04-26T10:35:13Z</time>
      </trkpt>
      <trkpt lat="46.089001586660743" lon="8.30501907505095">
        <time>2003-04-26T10:35:25Z</time>
      </trkpt>
      <trkpt lat="46.088532200083137" lon="8.304463857784867">
        <time>2003-04-26T10:35:39Z</time>
      </trkpt>
      <trkpt lat="46.088363220915198" lon="8.30426269210875">
        <time>2003-04-26T10:35:45Z</time>
      </trkpt>
      <trkpt lat="46.088430276140571" lon="8.304056162014604">
        <time>2003-04-26T10:35:49Z</time>
      </trkpt>
      <trkpt lat="46.088719954714179" lon="8.303251499310136">
        <time>2003-04-26T10:36:05Z</time>
      </trkpt>
      <trkpt lat="46.088671674951911" lon="8.303197855129838">
        <time>2003-04-26T10:36:08Z</time>
      </trkpt>
      <trkpt lat="46.088628843426704" lon="8.303142869845033">
        <time>2003-04-26T10:36:12Z</time>
      </trkpt>
      <trkpt lat="46.088575199246407" lon="8.303113365545869">
        <time>2003-04-26T10:36:15Z</time>
      </trkpt>
      <trkpt lat="46.08824796974659" lon="8.302858555689454">
        <time>2003-04-26T10:36:25Z</time>
      </trkpt>
      <trkpt lat="46.087641790509224" lon="8.302182639017701">
        <time>2003-04-26T10:36:43Z</time>
      </trkpt>
      <trkpt lat="46.087000742554665" lon="8.301450395956636">
        <time>2003-04-26T10:37:04Z</time>
      </trkpt>
      <trkpt lat="46.086901500821114" lon="8.301477218046784">
        <time>2003-04-26T10:37:08Z</time>
      </trkpt>
      <trkpt lat="46.086882725358009" lon="8.301495993509889">
        <time>2003-04-26T10:37:09Z</time>
      </trkpt>
      <trkpt lat="46.086748614907265" lon="8.301450395956636">
        <time>2003-04-26T10:37:15Z</time>
      </trkpt>
      <trkpt lat="46.086139753460884" lon="8.301192903891206">
        <time>2003-04-26T10:37:33Z</time>
      </trkpt>
      <trkpt lat="46.08574278652668" lon="8.301015878096223">
        <time>2003-04-26T10:37:44Z</time>
      </trkpt>
      <trkpt lat="46.085694506764412" lon="8.30082812346518">
        <time>2003-04-26T10:37:48Z</time>
      </trkpt>
      <trkpt lat="46.085552349686623" lon="8.300396287813783">
        <time>2003-04-26T10:37:56Z</time>
      </trkpt>
      <trkpt lat="46.085520163178444" lon="8.300256812945008">
        <time>2003-04-26T10:37:59Z</time>
      </trkpt>
      <trkpt lat="46.085506752133369" lon="8.300165617838502">
        <time>2003-04-26T10:38:01Z</time>
      </trkpt>
      <trkpt lat="46.085493005812168" lon="8.300124630331993">
        <time>2003-04-26T10:38:02Z</time>
      </trkpt>
      <trkpt lat="46.085474230349064" lon="8.30008439719677">
        <time>2003-04-26T10:38:03Z</time>
      </trkpt>
      <trkpt lat="46.085399128496647" lon="8.299995884299278">
        <time>2003-04-26T10:38:07Z</time>
      </trkpt>
      <trkpt lat="46.08532402664423" lon="8.29995833337307">
        <time>2003-04-26T10:38:10Z</time>
      </trkpt>
      <trkpt lat="46.085291840136051" lon="8.299944922327995">
        <time>2003-04-26T10:38:11Z</time>
      </trkpt>
      <trkpt lat="46.085259653627872" lon="8.299939557909966">
        <time>2003-04-26T10:38:12Z</time>
      </trkpt>
      <trkpt lat="46.085227467119694" lon="8.299931511282921">
        <time>2003-04-26T10:38:13Z</time>
      </trkpt>
      <trkpt lat="46.084717847406864" lon="8.299523815512657">
        <time>2003-04-26T10:38:31Z</time>
      </trkpt>
      <trkpt lat="46.084629334509373" lon="8.299354836344719">
        <time>2003-04-26T10:38:36Z</time>
      </trkpt>
      <trkpt lat="46.084632016718388" lon="8.299239501357079">
        <time>2003-04-26T10:38:39Z</time>
      </trkpt>
      <trkpt lat="46.084648109972477" lon="8.298896178603172">
        <time>2003-04-26T10:38:48Z</time>
      </trkpt>
      <trkpt lat="46.084581054747105" lon="8.298802301287651">
        <time>2003-04-26T10:38:51Z</time>
      </trkpt>
      <trkpt lat="46.084117032587528" lon="8.298142477869988">
        <time>2003-04-26T10:39:07Z</time>
      </trkpt>
      <trkpt lat="46.08356986194849" lon="8.297308310866356">
        <time>2003-04-26T10:39:28Z</time>
      </trkpt>
      <trkpt lat="46.083526108413935" lon="8.297286266461015">
        <time>2003-04-26T10:39:29Z</time>
      </trkpt>
      <trkpt lat="46.083424184471369" lon="8.297208482399583">
        <time>2003-04-26T10:39:32Z</time>
      </trkpt>
      <trkpt lat="46.083445642143488" lon="8.296980494633317">
        <time>2003-04-26T10:39:36Z</time>
      </trkpt>
      <trkpt lat="46.083695087581873" lon="8.296554023399949">
        <time>2003-04-26T10:39:49Z</time>
      </trkpt>
      <trkpt lat="46.084097418934107" lon="8.295875424519181">
        <time>2003-04-26T10:40:10Z</time>
      </trkpt>
      <trkpt lat="46.084102783352137" lon="8.295832509174943">
        <time>2003-04-26T10:40:11Z</time>
      </trkpt>
      <trkpt lat="46.084172520786524" lon="8.294864231720567">
        <time>2003-04-26T10:40:32Z</time>
      </trkpt>
      <trkpt lat="46.084199342876673" lon="8.29379134811461">
        <time>2003-04-26T10:40:56Z</time>
      </trkpt>
      <trkpt lat="46.08414838090539" lon="8.293002778664231">
        <time>2003-04-26T10:41:32Z</time>
      </trkpt>
      <trkpt lat="46.084126923233271" lon="8.292847210541368">
        <time>2003-04-26T10:41:36Z</time>
      </trkpt>
      <trkpt lat="46.084118876606226" lon="8.292780155315995">
        <time>2003-04-26T10:41:37Z</time>
      </trkpt>
      <trkpt lat="46.084110829979181" lon="8.292710417881608">
        <time>2003-04-26T10:41:38Z</time>
      </trkpt>
      <trkpt lat="46.084097418934107" lon="8.292637998238206">
        <time>2003-04-26T10:41:39Z</time>
      </trkpt>
      <trkpt lat="46.084024999290705" lon="8.292216891422868">
        <time>2003-04-26T10:41:45Z</time>
      </trkpt>
      <trkpt lat="46.08398468233645" lon="8.292113626375794">
        <time>2003-04-26T10:41:48Z</time>
      </trkpt>
      <trkpt lat="46.083957860246301" lon="8.292033160105348">
        <time>2003-04-26T10:41:52Z</time>
      </trkpt>
      <trkpt lat="46.083944449201226" lon="8.291952693834901">
        <time>2003-04-26T10:41:55Z</time>
      </trkpt>
      <trkpt lat="46.083821067586541" lon="8.291574502363801">
        <time>2003-04-26T10:42:28Z</time>
      </trkpt>
      <trkpt lat="46.083724508062005" lon="8.291072929278016">
        <time>2003-04-26T10:43:33Z</time>
      </trkpt>
      <trkpt lat="46.083652088418603" lon="8.29073497094214">
        <time>2003-04-26T10:43:40Z</time>
      </trkpt>
      <trkpt lat="46.08360649086535" lon="8.290657186880708">
        <time>2003-04-26T10:43:42Z</time>
      </trkpt>
      <trkpt lat="46.08359576202929" lon="8.29060890711844">
        <time>2003-04-26T10:43:43Z</time>
      </trkpt>
      <trkpt lat="46.083426782861352" lon="8.290134156122804">
        <time>2003-04-26T10:43:54Z</time>
      </trkpt>
      <trkpt lat="46.083383867517114" lon="8.290024185553193">
        <time>2003-04-26T10:43:57Z</time>
      </trkpt>
      <trkpt lat="46.083375820890069" lon="8.289989316836">
        <time>2003-04-26T10:43:58Z</time>
      </trkpt>
      <trkpt lat="46.08335436321795" lon="8.289951765909791">
        <time>2003-04-26T10:43:59Z</time>
      </trkpt>
      <trkpt lat="46.083319494500756" lon="8.2898632530123">
        <time>2003-04-26T10:44:02Z</time>
      </trkpt>
      <trkpt lat="46.083298036828637" lon="8.289812291041017">
        <time>2003-04-26T10:44:04Z</time>
      </trkpt>
      <trkpt lat="46.083013890311122" lon="8.289162525907159">
        <time>2003-04-26T10:44:25Z</time>
      </trkpt>
      <trkpt lat="46.082793949171901" lon="8.288333723321557">
        <time>2003-04-26T10:44:47Z</time>
      </trkpt>
      <trkpt lat="46.082713482901454" lon="8.28788579441607">
        <time>2003-04-26T10:45:02Z</time>
      </trkpt>
      <trkpt lat="46.082633016631007" lon="8.287571975961328">
        <time>2003-04-26T10:45:19Z</time>
      </trkpt>
      <trkpt lat="46.082635698840022" lon="8.287574658170342">
        <time>2003-04-26T10:45:20Z</time>
      </trkpt>
      <trkpt lat="46.082595465704799" lon="8.287467369809747">
        <time>2003-04-26T10:45:28Z</time>
      </trkpt>
      <trkpt lat="46.082587419077754" lon="8.287437865510583">
        <time>2003-04-26T10:45:29Z</time>
      </trkpt>
      <trkpt lat="46.08256327919662" lon="8.28739226795733">
        <time>2003-04-26T10:45:30Z</time>
      </trkpt>
      <trkpt lat="46.082482812926173" lon="8.28727156855166">
        <time>2003-04-26T10:45:33Z</time>
      </trkpt>
      <trkpt lat="46.081873951479793" lon="8.286855826154351">
        <time>2003-04-26T10:45:50Z</time>
      </trkpt>
      <trkpt lat="46.081643281504512" lon="8.286914834752679">
        <time>2003-04-26T10:45:57Z</time>
      </trkpt>
      <trkpt lat="46.081616459414363" lon="8.286925563588738">
        <time>2003-04-26T10:45:58Z</time>
      </trkpt>
      <trkpt lat="46.081157801672816" lon="8.287209877744317">
        <time>2003-04-26T10:46:15Z</time>
      </trkpt>
      <trkpt lat="46.08068841509521" lon="8.287625620141625">
        <time>2003-04-26T10:46:31Z</time>
      </trkpt>
      <trkpt lat="46.080641476437449" lon="8.287620423361659">
        <time>2003-04-26T10:46:33Z</time>
      </trkpt>
      <trkpt lat="46.080614654347301" lon="8.287612376734614">
        <time>2003-04-26T10:46:35Z</time>
      </trkpt>
      <trkpt lat="46.080579785630107" lon="8.287564096972346">
        <time>2003-04-26T10:47:24Z</time>
      </trkpt>
      <trkpt lat="46.080566374585032" lon="8.287499723955989">
        <time>2003-04-26T10:47:26Z</time>
      </trkpt>
      <trkpt lat="46.080534188076854" lon="8.287413893267512">
        <time>2003-04-26T10:47:28Z</time>
      </trkpt>
      <trkpt lat="46.080485908314586" lon="8.287314651533961">
        <time>2003-04-26T10:47:30Z</time>
      </trkpt>
      <trkpt lat="46.080239145085216" lon="8.286681650206447">
        <time>2003-04-26T10:47:42Z</time>
      </trkpt>
      <trkpt lat="46.080198911949992" lon="8.286649463698268">
        <time>2003-04-26T10:47:43Z</time>
      </trkpt>
      <trkpt lat="46.079560546204448" lon="8.286161301657558">
        <time>2003-04-26T10:47:58Z</time>
      </trkpt>
      <trkpt lat="46.079517630860209" lon="8.286118386313319">
        <time>2003-04-26T10:47:59Z</time>
      </trkpt>
      <trkpt lat="46.079434482380748" lon="8.286032555624843">
        <time>2003-04-26T10:48:01Z</time>
      </trkpt>
      <trkpt lat="46.07937547378242" lon="8.285917220637202">
        <time>2003-04-26T10:48:03Z</time>
      </trkpt>
      <trkpt lat="46.079345969483256" lon="8.285852847620845">
        <time>2003-04-26T10:48:04Z</time>
      </trkpt>
      <trkpt lat="46.079193083569407" lon="8.285496113821864">
        <time>2003-04-26T10:48:10Z</time>
      </trkpt>
      <trkpt lat="46.07891907915473" lon="8.285415396094322">
        <time>2003-04-26T10:48:16Z</time>
      </trkpt>
      <trkpt lat="46.078736688941717" lon="8.285372480750084">
        <time>2003-04-26T10:48:21Z</time>
      </trkpt>
      <trkpt lat="46.07866695150733" lon="8.285329565405846">
        <time>2003-04-26T10:48:24Z</time>
      </trkpt>
      <trkpt lat="46.078082229942083" lon="8.285114988684654">
        <time>2003-04-26T10:48:45Z</time>
      </trkpt>
      <trkpt lat="46.077529694885015" lon="8.284946009516716">
        <time>2003-04-26T10:49:01Z</time>
      </trkpt>
      <trkpt lat="46.076969113200903" lon="8.284680470824242">
        <time>2003-04-26T10:49:20Z</time>
      </trkpt>
      <trkpt lat="46.076883282512426" lon="8.28459195792675">
        <time>2003-04-26T10:49:23Z</time>
      </trkpt>
      <trkpt lat="46.076856460422277" lon="8.284498080611229">
        <time>2003-04-26T10:49:25Z</time>
      </trkpt>
      <trkpt lat="46.076845731586218" lon="8.284452483057976">
        <time>2003-04-26T10:49:26Z</time>
      </trkpt>
      <trkpt lat="46.07679745182395" lon="8.284369334578514">
        <time>2003-04-26T10:49:28Z</time>
      </trkpt>
      <trkpt lat="46.076510455459356" lon="8.283913359045982">
        <time>2003-04-26T10:49:42Z</time>
      </trkpt>
      <trkpt lat="46.076395120471716" lon="8.283835574984551">
        <time>2003-04-26T10:49:46Z</time>
      </trkpt>
      <trkpt lat="46.076266374439001" lon="8.283883854746819">
        <time>2003-04-26T10:49:52Z</time>
      </trkpt>
      <trkpt lat="46.075976695865393" lon="8.284396156668663">
        <time>2003-04-26T10:50:10Z</time>
      </trkpt>
      <trkpt lat="46.075765807181597" lon="8.284733360633254">
        <time>2003-04-26T10:50:28Z</time>
      </trkpt>
      <trkpt lat="46.07568534091115" lon="8.28482992015779">
        <time>2003-04-26T10:51:23Z</time>
      </trkpt>
      <trkpt lat="46.075631696730852" lon="8.284816509112716">
        <time>2003-04-26T10:51:25Z</time>
      </trkpt>
      <trkpt lat="46.075596828013659" lon="8.284800415858626">
        <time>2003-04-26T10:51:26Z</time>
      </trkpt>
      <trkpt lat="46.075556594878435" lon="8.284784322604537">
        <time>2003-04-26T10:51:27Z</time>
      </trkpt>
      <trkpt lat="46.074816305190325" lon="8.284647529944778">
        <time>2003-04-26T10:51:44Z</time>
      </trkpt>
      <trkpt lat="46.074234265834093" lon="8.284655576571822">
        <time>2003-04-26T10:51:55Z</time>
      </trkpt>
      <trkpt lat="46.073392052203417" lon="8.284765547141433">
        <time>2003-04-26T10:52:11Z</time>
      </trkpt>
      <trkpt lat="46.072657126933336" lon="8.284776275977492">
        <time>2003-04-26T10:52:25Z</time>
      </trkpt>
      <trkpt lat="46.072040218859911" lon="8.284395402297378">
        <time>2003-04-26T10:52:38Z</time>
      </trkpt>
      <trkpt lat="46.071570832282305" lon="8.283724850043654">
        <time>2003-04-26T10:52:50Z</time>
      </trkpt>
      <trkpt lat="46.071254331618547" lon="8.282861178740859">
        <time>2003-04-26T10:53:02Z</time>
      </trkpt>
      <trkpt lat="46.071122903376818" lon="8.281833892688155">
        <time>2003-04-26T10:53:15Z</time>
      </trkpt>
      <trkpt lat="46.07105316594243" lon="8.280514245852828">
        <time>2003-04-26T10:53:30Z</time>
      </trkpt>
      <trkpt lat="46.070982925593853" lon="8.279170962050557">
        <time>2003-04-26T10:53:45Z</time>
      </trkpt>
      <trkpt lat="46.07092659920454" lon="8.277658196166158">
        <time>2003-04-26T10:54:03Z</time>
      </trkpt>
      <trkpt lat="46.070902459323406" lon="8.276440473273397">
        <time>2003-04-26T10:54:19Z</time>
      </trkpt>
      <trkpt lat="46.070862226188183" lon="8.275343449786305">
        <time>2003-04-26T10:54:35Z</time>
      </trkpt>
      <trkpt lat="46.070709340274334" lon="8.274461003020406">
        <time>2003-04-26T10:54:47Z</time>
      </trkpt>
      <trkpt lat="46.070478670299053" lon="8.273549051955342">
        <time>2003-04-26T10:54:59Z</time>
      </trkpt>
      <trkpt lat="46.070282869040966" lon="8.272376926615834">
        <time>2003-04-26T10:55:14Z</time>
      </trkpt>
      <trkpt lat="46.070156805217266" lon="8.271202119067311">
        <time>2003-04-26T10:55:30Z</time>
      </trkpt>
      <trkpt lat="46.069998554885387" lon="8.269772501662374">
        <time>2003-04-26T10:55:49Z</time>
      </trkpt>
      <trkpt lat="46.069926135241985" lon="8.26872912235558">
        <time>2003-04-26T10:56:03Z</time>
      </trkpt>
      <trkpt lat="46.06993418186903" lon="8.268656702712178">
        <time>2003-04-26T10:56:04Z</time>
      </trkpt>
      <trkpt lat="46.070164851844311" lon="8.268002243712544">
        <time>2003-04-26T10:56:14Z</time>
      </trkpt>
      <trkpt lat="46.070245318114758" lon="8.267884226515889">
        <time>2003-04-26T10:56:16Z</time>
      </trkpt>
      <trkpt lat="46.070288233458996" lon="8.267830582335591">
        <time>2003-04-26T10:56:17Z</time>
      </trkpt>
      <trkpt lat="46.070331316441298" lon="8.267775764688849">
        <time>2003-04-26T10:56:18Z</time>
      </trkpt>
      <trkpt lat="46.070379596203566" lon="8.267732849344611">
        <time>2003-04-26T10:56:19Z</time>
      </trkpt>
      <trkpt lat="46.070484202355146" lon="8.267665794119239">
        <time>2003-04-26T10:56:21Z</time>
      </trkpt>
      <trkpt lat="46.070537846535444" lon="8.26763897202909">
        <time>2003-04-26T10:56:22Z</time>
      </trkpt>
      <trkpt lat="46.071347873657942" lon="8.267303695902228">
        <time>2003-04-26T10:56:37Z</time>
      </trkpt>
      <trkpt lat="46.072214227169752" lon="8.266949644312263">
        <time>2003-04-26T10:56:53Z</time>
      </trkpt>
      <trkpt lat="46.073252242058516" lon="8.266560724005103">
        <time>2003-04-26T10:57:11Z</time>
      </trkpt>
      <trkpt lat="46.073831599205732" lon="8.266686787828803">
        <time>2003-04-26T10:57:22Z</time>
      </trkpt>
      <trkpt lat="46.073877196758986" lon="8.266721656545997">
        <time>2003-04-26T10:57:23Z</time>
      </trkpt>
      <trkpt lat="46.074341218918562" lon="8.267209818586707">
        <time>2003-04-26T10:57:34Z</time>
      </trkpt>
      <trkpt lat="46.074813287705183" lon="8.267692616209388">
        <time>2003-04-26T10:57:46Z</time>
      </trkpt>
      <trkpt lat="46.074853520840406" lon="8.267722120508552">
        <time>2003-04-26T10:57:47Z</time>
      </trkpt>
      <trkpt lat="46.07489911839366" lon="8.267738213762641">
        <time>2003-04-26T10:57:48Z</time>
      </trkpt>
      <trkpt lat="46.074987631291151" lon="8.26775430701673">
        <time>2003-04-26T10:57:50Z</time>
      </trkpt>
      <trkpt lat="46.075304299592972" lon="8.267584070563316">
        <time>2003-04-26T10:57:59Z</time>
      </trkpt>
      <trkpt lat="46.075360625982285" lon="8.26748751103878">
        <time>2003-04-26T10:58:02Z</time>
      </trkpt>
      <trkpt lat="46.075390130281448" lon="8.267412409186363">
        <time>2003-04-26T10:58:05Z</time>
      </trkpt>
      <trkpt lat="46.075304299592972" lon="8.267090544104576">
        <time>2003-04-26T10:58:12Z</time>
      </trkpt>
      <trkpt lat="46.075205057859421" lon="8.266980573534966">
        <time>2003-04-26T10:58:15Z</time>
      </trkpt>
      <trkpt lat="46.074826866388321" lon="8.26661042869091">
        <time>2003-04-26T10:58:24Z</time>
      </trkpt>
      <trkpt lat="46.074775904417038" lon="8.266564831137657">
        <time>2003-04-26T10:58:25Z</time>
      </trkpt>
      <trkpt lat="46.074277013540268" lon="8.266039118170738">
        <time>2003-04-26T10:58:35Z</time>
      </trkpt>
      <trkpt lat="46.074204593896866" lon="8.265953287482262">
        <time>2003-04-26T10:58:37Z</time>
      </trkpt>
      <trkpt lat="46.073721796274185" lon="8.265400752425194">
        <time>2003-04-26T10:58:51Z</time>
      </trkpt>
      <trkpt lat="46.073029786348343" lon="8.264579996466637">
        <time>2003-04-26T10:59:15Z</time>
      </trkpt>
      <trkpt lat="46.072214394807816" lon="8.263721689581871">
        <time>2003-04-26T10:59:39Z</time>
      </trkpt>
      <trkpt lat="46.071012765169144" lon="8.262694403529167">
        <time>2003-04-26T11:00:10Z</time>
      </trkpt>
      <trkpt lat="46.070964485406876" lon="8.262683674693108">
        <time>2003-04-26T11:00:11Z</time>
      </trkpt>
      <trkpt lat="46.070311032235622" lon="8.262668587267399">
        <time>2003-04-26T11:00:26Z</time>
      </trkpt>
      <trkpt lat="46.069313250482082" lon="8.262781240046024">
        <time>2003-04-26T11:00:51Z</time>
      </trkpt>
      <trkpt lat="46.068556867539883" lon="8.262848295271397">
        <time>2003-04-26T11:01:05Z</time>
      </trkpt>
      <trkpt lat="46.067669056355953" lon="8.262904621660709">
        <time>2003-04-26T11:01:16Z</time>
      </trkpt>
      <trkpt lat="46.06750275939703" lon="8.262891210615635">
        <time>2003-04-26T11:01:18Z</time>
      </trkpt>
      <trkpt lat="46.067339144647121" lon="8.262845613062382">
        <time>2003-04-26T11:01:20Z</time>
      </trkpt>
      <trkpt lat="46.066724918782711" lon="8.262486197054386">
        <time>2003-04-26T11:01:29Z</time>
      </trkpt>
      <trkpt lat="46.066435240209103" lon="8.262276984751225">
        <time>2003-04-26T11:01:34Z</time>
      </trkpt>
      <trkpt lat="46.066408418118954" lon="8.262183107435703">
        <time>2003-04-26T11:01:42Z</time>
      </trkpt>
      <trkpt lat="46.066421829164028" lon="8.262118734419346">
        <time>2003-04-26T11:01:47Z</time>
      </trkpt>
      <trkpt lat="46.066405735909939" lon="8.26227430254221">
        <time>2003-04-26T11:07:34Z</time>
      </trkpt>
    </trkseg>
  </trk>

</gpx>
